<?xml version="1.0" encoding="UTF-8" standalone="no" ?>
<gpx xmlns="http://www.topografix.com/GPX/1/1" xmlns:xsi="http://www.w3.org/2001/XMLSchema-instance" xsi:schemaLocation="http://www.topografix.com/GPX/1/1 http://www.topografix.com/GPX/1/1/gpx.xsd" version="1.1" creator="VisuGPX - https://www.visugpx.com">
  <metadata>
    <name>De la Ferté Sous Jouarre à Nanteuil sur Marne</name>
    <desc><![CDATA[Départ à la gare SNCF de la Ferté Sous Jouarre, arrivée à la gare SNCF deSaacy-Nanteuil sur Marne.
Nous passerons par Reuil en Brie, le Tillet (un détour pour voir un ancien lavoir), Vauharlin, le bois des Gillayottes, Nanteuil. Daniel BAIJOT]]></desc>
  </metadata>
  <trk>
    <name><![CDATA[Tracé actuel: 10 FEV 2014 08:31]]></name>
    <trkseg>
      <trkpt lat="48.95056" lon="3.12353">
        <ele>59.26</ele>
        <time>2014-02-10T07:31:57Z</time>
      </trkpt>
      <trkpt lat="48.95062" lon="3.12454">
        <ele>59.26</ele>
        <time>2014-02-10T07:32:10Z</time>
      </trkpt>
      <trkpt lat="48.95056" lon="3.12388">
        <ele>58.3</ele>
        <time>2014-02-10T07:32:25Z</time>
      </trkpt>
      <trkpt lat="48.95062" lon="3.12372">
        <ele>56.86</ele>
        <time>2014-02-10T07:32:45Z</time>
      </trkpt>
      <trkpt lat="48.95065" lon="3.12379">
        <ele>53.97</ele>
        <time>2014-02-10T07:33:07Z</time>
      </trkpt>
      <trkpt lat="48.95066" lon="3.12385">
        <ele>53.49</ele>
        <time>2014-02-10T07:33:27Z</time>
      </trkpt>
      <trkpt lat="48.95062" lon="3.12397">
        <ele>55.41</ele>
        <time>2014-02-10T07:33:45Z</time>
      </trkpt>
      <trkpt lat="48.95033" lon="3.12447">
        <ele>58.78</ele>
        <time>2014-02-10T07:34:10Z</time>
      </trkpt>
      <trkpt lat="48.95016" lon="3.12481">
        <ele>56.37</ele>
        <time>2014-02-10T07:34:21Z</time>
      </trkpt>
      <trkpt lat="48.94996" lon="3.12506">
        <ele>54.93</ele>
        <time>2014-02-10T07:34:39Z</time>
      </trkpt>
      <trkpt lat="48.94979" lon="3.12533">
        <ele>58.78</ele>
        <time>2014-02-10T07:34:56Z</time>
      </trkpt>
      <trkpt lat="48.94974" lon="3.1254">
        <ele>59.26</ele>
        <time>2014-02-10T07:35:01Z</time>
      </trkpt>
      <trkpt lat="48.94954" lon="3.12563">
        <ele>58.3</ele>
        <time>2014-02-10T07:35:19Z</time>
      </trkpt>
      <trkpt lat="48.94946" lon="3.12577">
        <ele>57.34</ele>
        <time>2014-02-10T07:35:27Z</time>
      </trkpt>
      <trkpt lat="48.94943" lon="3.12601">
        <ele>56.37</ele>
        <time>2014-02-10T07:35:41Z</time>
      </trkpt>
      <trkpt lat="48.94941" lon="3.12615">
        <ele>57.82</ele>
        <time>2014-02-10T07:35:51Z</time>
      </trkpt>
      <trkpt lat="48.94945" lon="3.12639">
        <ele>57.82</ele>
        <time>2014-02-10T07:36:03Z</time>
      </trkpt>
      <trkpt lat="48.94948" lon="3.1265">
        <ele>57.82</ele>
        <time>2014-02-10T07:36:09Z</time>
      </trkpt>
      <trkpt lat="48.94946" lon="3.12666">
        <ele>58.3</ele>
        <time>2014-02-10T07:36:18Z</time>
      </trkpt>
      <trkpt lat="48.94949" lon="3.12706">
        <ele>60.22</ele>
        <time>2014-02-10T07:36:35Z</time>
      </trkpt>
      <trkpt lat="48.94946" lon="3.12724">
        <ele>58.78</ele>
        <time>2014-02-10T07:36:43Z</time>
      </trkpt>
      <trkpt lat="48.9495" lon="3.12758">
        <ele>62.62</ele>
        <time>2014-02-10T07:37:01Z</time>
      </trkpt>
      <trkpt lat="48.94956" lon="3.12795">
        <ele>64.07</ele>
        <time>2014-02-10T07:37:20Z</time>
      </trkpt>
      <trkpt lat="48.94958" lon="3.12807">
        <ele>63.58</ele>
        <time>2014-02-10T07:37:26Z</time>
      </trkpt>
      <trkpt lat="48.94972" lon="3.1283">
        <ele>63.58</ele>
        <time>2014-02-10T07:37:41Z</time>
      </trkpt>
      <trkpt lat="48.94978" lon="3.12854">
        <ele>60.7</ele>
        <time>2014-02-10T07:37:54Z</time>
      </trkpt>
      <trkpt lat="48.9498" lon="3.12859">
        <ele>60.7</ele>
        <time>2014-02-10T07:37:57Z</time>
      </trkpt>
      <trkpt lat="48.94991" lon="3.12891">
        <ele>60.7</ele>
        <time>2014-02-10T07:38:14Z</time>
      </trkpt>
      <trkpt lat="48.94993" lon="3.12907">
        <ele>60.22</ele>
        <time>2014-02-10T07:38:23Z</time>
      </trkpt>
      <trkpt lat="48.94979" lon="3.12936">
        <ele>61.18</ele>
        <time>2014-02-10T07:38:39Z</time>
      </trkpt>
      <trkpt lat="48.94979" lon="3.12944">
        <ele>61.66</ele>
        <time>2014-02-10T07:38:45Z</time>
      </trkpt>
      <trkpt lat="48.94977" lon="3.12953">
        <ele>61.66</ele>
        <time>2014-02-10T07:38:50Z</time>
      </trkpt>
      <trkpt lat="48.94965" lon="3.12981">
        <ele>61.66</ele>
        <time>2014-02-10T07:39:08Z</time>
      </trkpt>
      <trkpt lat="48.94951" lon="3.13013">
        <ele>60.7</ele>
        <time>2014-02-10T07:39:24Z</time>
      </trkpt>
      <trkpt lat="48.94939" lon="3.13042">
        <ele>58.78</ele>
        <time>2014-02-10T07:39:39Z</time>
      </trkpt>
      <trkpt lat="48.94928" lon="3.13071">
        <ele>57.82</ele>
        <time>2014-02-10T07:39:53Z</time>
      </trkpt>
      <trkpt lat="48.94925" lon="3.13075">
        <ele>58.3</ele>
        <time>2014-02-10T07:39:57Z</time>
      </trkpt>
      <trkpt lat="48.94914" lon="3.13104">
        <ele>58.78</ele>
        <time>2014-02-10T07:40:12Z</time>
      </trkpt>
      <trkpt lat="48.94913" lon="3.13107">
        <ele>58.78</ele>
        <time>2014-02-10T07:40:14Z</time>
      </trkpt>
      <trkpt lat="48.94912" lon="3.13111">
        <ele>58.78</ele>
        <time>2014-02-10T07:40:17Z</time>
      </trkpt>
      <trkpt lat="48.94901" lon="3.13135">
        <ele>57.34</ele>
        <time>2014-02-10T07:40:30Z</time>
      </trkpt>
      <trkpt lat="48.94899" lon="3.13141">
        <ele>56.86</ele>
        <time>2014-02-10T07:40:33Z</time>
      </trkpt>
      <trkpt lat="48.94893" lon="3.13148">
        <ele>56.37</ele>
        <time>2014-02-10T07:40:41Z</time>
      </trkpt>
      <trkpt lat="48.9488" lon="3.13178">
        <ele>57.34</ele>
        <time>2014-02-10T07:40:59Z</time>
      </trkpt>
      <trkpt lat="48.94869" lon="3.13196">
        <ele>56.37</ele>
        <time>2014-02-10T07:41:11Z</time>
      </trkpt>
      <trkpt lat="48.94865" lon="3.13207">
        <ele>54.45</ele>
        <time>2014-02-10T07:41:24Z</time>
      </trkpt>
      <trkpt lat="48.94863" lon="3.13211">
        <ele>54.45</ele>
        <time>2014-02-10T07:41:28Z</time>
      </trkpt>
      <trkpt lat="48.94857" lon="3.13214">
        <ele>53.97</ele>
        <time>2014-02-10T07:41:40Z</time>
      </trkpt>
      <trkpt lat="48.94856" lon="3.13213">
        <ele>54.45</ele>
        <time>2014-02-10T07:41:44Z</time>
      </trkpt>
      <trkpt lat="48.94855" lon="3.13213">
        <ele>54.93</ele>
        <time>2014-02-10T07:41:47Z</time>
      </trkpt>
      <trkpt lat="48.94852" lon="3.13216">
        <ele>55.41</ele>
        <time>2014-02-10T07:41:50Z</time>
      </trkpt>
      <trkpt lat="48.94849" lon="3.13218">
        <ele>55.41</ele>
        <time>2014-02-10T07:41:56Z</time>
      </trkpt>
      <trkpt lat="48.94847" lon="3.1322">
        <ele>55.41</ele>
        <time>2014-02-10T07:41:58Z</time>
      </trkpt>
      <trkpt lat="48.94829" lon="3.13243">
        <ele>55.89</ele>
        <time>2014-02-10T07:42:16Z</time>
      </trkpt>
      <trkpt lat="48.94822" lon="3.13252">
        <ele>56.37</ele>
        <time>2014-02-10T07:42:24Z</time>
      </trkpt>
      <trkpt lat="48.94798" lon="3.13274">
        <ele>55.89</ele>
        <time>2014-02-10T07:42:38Z</time>
      </trkpt>
      <trkpt lat="48.94795" lon="3.13278">
        <ele>55.89</ele>
        <time>2014-02-10T07:42:42Z</time>
      </trkpt>
      <trkpt lat="48.94775" lon="3.13304">
        <ele>58.78</ele>
        <time>2014-02-10T07:43:01Z</time>
      </trkpt>
      <trkpt lat="48.94768" lon="3.13323">
        <ele>58.3</ele>
        <time>2014-02-10T07:43:14Z</time>
      </trkpt>
      <trkpt lat="48.94784" lon="3.13356">
        <ele>57.82</ele>
        <time>2014-02-10T07:43:30Z</time>
      </trkpt>
      <trkpt lat="48.94787" lon="3.1336">
        <ele>58.3</ele>
        <time>2014-02-10T07:43:33Z</time>
      </trkpt>
      <trkpt lat="48.948" lon="3.13363">
        <ele>58.78</ele>
        <time>2014-02-10T07:43:40Z</time>
      </trkpt>
      <trkpt lat="48.94811" lon="3.13378">
        <ele>61.18</ele>
        <time>2014-02-10T07:43:51Z</time>
      </trkpt>
      <trkpt lat="48.94818" lon="3.13373">
        <ele>63.1</ele>
        <time>2014-02-10T07:43:55Z</time>
      </trkpt>
      <trkpt lat="48.94821" lon="3.13364">
        <ele>63.1</ele>
        <time>2014-02-10T07:43:59Z</time>
      </trkpt>
      <trkpt lat="48.94822" lon="3.1336">
        <ele>63.58</ele>
        <time>2014-02-10T07:44:01Z</time>
      </trkpt>
      <trkpt lat="48.9483" lon="3.13352">
        <ele>64.07</ele>
        <time>2014-02-10T07:44:06Z</time>
      </trkpt>
      <trkpt lat="48.94846" lon="3.13336">
        <ele>61.18</ele>
        <time>2014-02-10T07:44:19Z</time>
      </trkpt>
      <trkpt lat="48.94857" lon="3.13318">
        <ele>58.3</ele>
        <time>2014-02-10T07:44:33Z</time>
      </trkpt>
      <trkpt lat="48.94869" lon="3.13298">
        <ele>55.89</ele>
        <time>2014-02-10T07:44:46Z</time>
      </trkpt>
      <trkpt lat="48.94878" lon="3.13279">
        <ele>56.37</ele>
        <time>2014-02-10T07:44:54Z</time>
      </trkpt>
      <trkpt lat="48.9489" lon="3.13263">
        <ele>54.45</ele>
        <time>2014-02-10T07:45:07Z</time>
      </trkpt>
      <trkpt lat="48.94898" lon="3.13249">
        <ele>54.45</ele>
        <time>2014-02-10T07:45:23Z</time>
      </trkpt>
      <trkpt lat="48.94898" lon="3.1325">
        <ele>53.49</ele>
        <time>2014-02-10T07:45:30Z</time>
      </trkpt>
      <trkpt lat="48.94916" lon="3.13272">
        <ele>52.05</ele>
        <time>2014-02-10T07:45:48Z</time>
      </trkpt>
      <trkpt lat="48.94934" lon="3.13291">
        <ele>51.57</ele>
        <time>2014-02-10T07:46:01Z</time>
      </trkpt>
      <trkpt lat="48.94947" lon="3.13307">
        <ele>50.61</ele>
        <time>2014-02-10T07:46:14Z</time>
      </trkpt>
      <trkpt lat="48.94968" lon="3.13333">
        <ele>51.57</ele>
        <time>2014-02-10T07:46:32Z</time>
      </trkpt>
      <trkpt lat="48.94984" lon="3.13352">
        <ele>51.57</ele>
        <time>2014-02-10T07:46:45Z</time>
      </trkpt>
      <trkpt lat="48.94998" lon="3.13371">
        <ele>51.09</ele>
        <time>2014-02-10T07:46:58Z</time>
      </trkpt>
      <trkpt lat="48.9501" lon="3.13385">
        <ele>50.13</ele>
        <time>2014-02-10T07:47:11Z</time>
      </trkpt>
      <trkpt lat="48.95028" lon="3.13403">
        <ele>49.16</ele>
        <time>2014-02-10T07:47:26Z</time>
      </trkpt>
      <trkpt lat="48.95028" lon="3.13408">
        <ele>49.16</ele>
        <time>2014-02-10T07:47:38Z</time>
      </trkpt>
      <trkpt lat="48.95034" lon="3.13415">
        <ele>50.13</ele>
        <time>2014-02-10T07:47:46Z</time>
      </trkpt>
      <trkpt lat="48.95044" lon="3.1342">
        <ele>51.57</ele>
        <time>2014-02-10T07:47:54Z</time>
      </trkpt>
      <trkpt lat="48.95061" lon="3.13441">
        <ele>53.01</ele>
        <time>2014-02-10T07:48:08Z</time>
      </trkpt>
      <trkpt lat="48.95074" lon="3.1346">
        <ele>50.61</ele>
        <time>2014-02-10T07:48:22Z</time>
      </trkpt>
      <trkpt lat="48.95075" lon="3.13461">
        <ele>50.13</ele>
        <time>2014-02-10T07:48:23Z</time>
      </trkpt>
      <trkpt lat="48.9508" lon="3.13469">
        <ele>48.68</ele>
        <time>2014-02-10T07:48:28Z</time>
      </trkpt>
      <trkpt lat="48.95092" lon="3.13487">
        <ele>46.76</ele>
        <time>2014-02-10T07:48:41Z</time>
      </trkpt>
      <trkpt lat="48.95105" lon="3.13508">
        <ele>47.72</ele>
        <time>2014-02-10T07:48:53Z</time>
      </trkpt>
      <trkpt lat="48.95123" lon="3.1353">
        <ele>48.68</ele>
        <time>2014-02-10T07:49:09Z</time>
      </trkpt>
      <trkpt lat="48.95139" lon="3.13549">
        <ele>52.05</ele>
        <time>2014-02-10T07:49:23Z</time>
      </trkpt>
      <trkpt lat="48.95142" lon="3.13557">
        <ele>51.57</ele>
        <time>2014-02-10T07:49:30Z</time>
      </trkpt>
      <trkpt lat="48.95146" lon="3.13566">
        <ele>51.57</ele>
        <time>2014-02-10T07:49:34Z</time>
      </trkpt>
      <trkpt lat="48.95161" lon="3.13584">
        <ele>52.53</ele>
        <time>2014-02-10T07:49:47Z</time>
      </trkpt>
      <trkpt lat="48.95172" lon="3.13601">
        <ele>52.05</ele>
        <time>2014-02-10T07:49:59Z</time>
      </trkpt>
      <trkpt lat="48.95183" lon="3.13622">
        <ele>49.16</ele>
        <time>2014-02-10T07:50:12Z</time>
      </trkpt>
      <trkpt lat="48.95198" lon="3.13644">
        <ele>47.72</ele>
        <time>2014-02-10T07:50:25Z</time>
      </trkpt>
      <trkpt lat="48.952" lon="3.13649">
        <ele>47.24</ele>
        <time>2014-02-10T07:50:31Z</time>
      </trkpt>
      <trkpt lat="48.95211" lon="3.13665">
        <ele>48.2</ele>
        <time>2014-02-10T07:50:41Z</time>
      </trkpt>
      <trkpt lat="48.95225" lon="3.13684">
        <ele>47.24</ele>
        <time>2014-02-10T07:50:54Z</time>
      </trkpt>
      <trkpt lat="48.9523" lon="3.13687">
        <ele>47.72</ele>
        <time>2014-02-10T07:50:59Z</time>
      </trkpt>
      <trkpt lat="48.95237" lon="3.13695">
        <ele>49.16</ele>
        <time>2014-02-10T07:51:04Z</time>
      </trkpt>
      <trkpt lat="48.95247" lon="3.13705">
        <ele>49.16</ele>
        <time>2014-02-10T07:51:12Z</time>
      </trkpt>
      <trkpt lat="48.9526" lon="3.13717">
        <ele>48.68</ele>
        <time>2014-02-10T07:51:24Z</time>
      </trkpt>
      <trkpt lat="48.95276" lon="3.13733">
        <ele>48.2</ele>
        <time>2014-02-10T07:51:36Z</time>
      </trkpt>
      <trkpt lat="48.95292" lon="3.13749">
        <ele>47.72</ele>
        <time>2014-02-10T07:51:49Z</time>
      </trkpt>
      <trkpt lat="48.95297" lon="3.13754">
        <ele>47.72</ele>
        <time>2014-02-10T07:51:56Z</time>
      </trkpt>
      <trkpt lat="48.95308" lon="3.13765">
        <ele>49.16</ele>
        <time>2014-02-10T07:52:03Z</time>
      </trkpt>
      <trkpt lat="48.95323" lon="3.13778">
        <ele>48.68</ele>
        <time>2014-02-10T07:52:17Z</time>
      </trkpt>
      <trkpt lat="48.95337" lon="3.13786">
        <ele>48.68</ele>
        <time>2014-02-10T07:52:30Z</time>
      </trkpt>
      <trkpt lat="48.95352" lon="3.13798">
        <ele>47.72</ele>
        <time>2014-02-10T07:52:42Z</time>
      </trkpt>
      <trkpt lat="48.95354" lon="3.138">
        <ele>47.24</ele>
        <time>2014-02-10T07:52:44Z</time>
      </trkpt>
      <trkpt lat="48.95361" lon="3.1381">
        <ele>47.24</ele>
        <time>2014-02-10T07:52:49Z</time>
      </trkpt>
      <trkpt lat="48.95376" lon="3.13818">
        <ele>48.68</ele>
        <time>2014-02-10T07:53:01Z</time>
      </trkpt>
      <trkpt lat="48.95388" lon="3.13826">
        <ele>49.16</ele>
        <time>2014-02-10T07:53:13Z</time>
      </trkpt>
      <trkpt lat="48.95402" lon="3.13833">
        <ele>47.24</ele>
        <time>2014-02-10T07:53:22Z</time>
      </trkpt>
      <trkpt lat="48.9542" lon="3.13846">
        <ele>46.76</ele>
        <time>2014-02-10T07:53:34Z</time>
      </trkpt>
      <trkpt lat="48.95428" lon="3.1385">
        <ele>47.24</ele>
        <time>2014-02-10T07:53:39Z</time>
      </trkpt>
      <trkpt lat="48.95445" lon="3.1386">
        <ele>47.72</ele>
        <time>2014-02-10T07:53:53Z</time>
      </trkpt>
      <trkpt lat="48.9546" lon="3.1387">
        <ele>49.65</ele>
        <time>2014-02-10T07:54:06Z</time>
      </trkpt>
      <trkpt lat="48.95474" lon="3.13878">
        <ele>50.13</ele>
        <time>2014-02-10T07:54:16Z</time>
      </trkpt>
      <trkpt lat="48.95485" lon="3.13886">
        <ele>51.09</ele>
        <time>2014-02-10T07:54:29Z</time>
      </trkpt>
      <trkpt lat="48.955" lon="3.13899">
        <ele>49.65</ele>
        <time>2014-02-10T07:54:40Z</time>
      </trkpt>
      <trkpt lat="48.95506" lon="3.13905">
        <ele>49.16</ele>
        <time>2014-02-10T07:54:49Z</time>
      </trkpt>
      <trkpt lat="48.95512" lon="3.13907">
        <ele>49.65</ele>
        <time>2014-02-10T07:54:53Z</time>
      </trkpt>
      <trkpt lat="48.95533" lon="3.1392">
        <ele>51.09</ele>
        <time>2014-02-10T07:55:09Z</time>
      </trkpt>
      <trkpt lat="48.95544" lon="3.13923">
        <ele>52.05</ele>
        <time>2014-02-10T07:55:18Z</time>
      </trkpt>
      <trkpt lat="48.95562" lon="3.13937">
        <ele>52.05</ele>
        <time>2014-02-10T07:55:30Z</time>
      </trkpt>
      <trkpt lat="48.95566" lon="3.1394">
        <ele>52.05</ele>
        <time>2014-02-10T07:55:34Z</time>
      </trkpt>
      <trkpt lat="48.95584" lon="3.1395">
        <ele>52.53</ele>
        <time>2014-02-10T07:55:50Z</time>
      </trkpt>
      <trkpt lat="48.95593" lon="3.1395">
        <ele>52.53</ele>
        <time>2014-02-10T07:56:08Z</time>
      </trkpt>
      <trkpt lat="48.95596" lon="3.13952">
        <ele>52.53</ele>
        <time>2014-02-10T07:56:11Z</time>
      </trkpt>
      <trkpt lat="48.95629" lon="3.13973">
        <ele>53.49</ele>
        <time>2014-02-10T07:56:32Z</time>
      </trkpt>
      <trkpt lat="48.95657" lon="3.13989">
        <ele>53.01</ele>
        <time>2014-02-10T07:56:54Z</time>
      </trkpt>
      <trkpt lat="48.95681" lon="3.14001">
        <ele>51.57</ele>
        <time>2014-02-10T07:57:12Z</time>
      </trkpt>
      <trkpt lat="48.95702" lon="3.14016">
        <ele>45.32</ele>
        <time>2014-02-10T07:57:30Z</time>
      </trkpt>
      <trkpt lat="48.95724" lon="3.14026">
        <ele>40.51</ele>
        <time>2014-02-10T07:57:48Z</time>
      </trkpt>
      <trkpt lat="48.95726" lon="3.14027">
        <ele>40.51</ele>
        <time>2014-02-10T07:57:49Z</time>
      </trkpt>
      <trkpt lat="48.95732" lon="3.14026">
        <ele>41.47</ele>
        <time>2014-02-10T07:57:55Z</time>
      </trkpt>
      <trkpt lat="48.95742" lon="3.14032">
        <ele>43.88</ele>
        <time>2014-02-10T07:58:09Z</time>
      </trkpt>
      <trkpt lat="48.9575" lon="3.14043">
        <ele>43.88</ele>
        <time>2014-02-10T07:58:22Z</time>
      </trkpt>
      <trkpt lat="48.95762" lon="3.14051">
        <ele>42.92</ele>
        <time>2014-02-10T07:58:30Z</time>
      </trkpt>
      <trkpt lat="48.95778" lon="3.14056">
        <ele>44.84</ele>
        <time>2014-02-10T07:58:39Z</time>
      </trkpt>
      <trkpt lat="48.95784" lon="3.14062">
        <ele>45.32</ele>
        <time>2014-02-10T07:58:43Z</time>
      </trkpt>
      <trkpt lat="48.95803" lon="3.1407">
        <ele>46.76</ele>
        <time>2014-02-10T07:58:57Z</time>
      </trkpt>
      <trkpt lat="48.95819" lon="3.14074">
        <ele>49.65</ele>
        <time>2014-02-10T07:59:08Z</time>
      </trkpt>
      <trkpt lat="48.9582" lon="3.14076">
        <ele>51.09</ele>
        <time>2014-02-10T07:59:18Z</time>
      </trkpt>
      <trkpt lat="48.95821" lon="3.14073">
        <ele>50.13</ele>
        <time>2014-02-10T07:59:44Z</time>
      </trkpt>
      <trkpt lat="48.95821" lon="3.14074">
        <ele>50.61</ele>
        <time>2014-02-10T08:00:04Z</time>
      </trkpt>
      <trkpt lat="48.95821" lon="3.14075">
        <ele>50.13</ele>
        <time>2014-02-10T08:00:19Z</time>
      </trkpt>
      <trkpt lat="48.95822" lon="3.14076">
        <ele>50.13</ele>
        <time>2014-02-10T08:00:30Z</time>
      </trkpt>
      <trkpt lat="48.95824" lon="3.14079">
        <ele>49.65</ele>
        <time>2014-02-10T08:00:36Z</time>
      </trkpt>
      <trkpt lat="48.95834" lon="3.14092">
        <ele>48.68</ele>
        <time>2014-02-10T08:00:49Z</time>
      </trkpt>
      <trkpt lat="48.95841" lon="3.14099">
        <ele>48.68</ele>
        <time>2014-02-10T08:01:02Z</time>
      </trkpt>
      <trkpt lat="48.95845" lon="3.14102">
        <ele>49.16</ele>
        <time>2014-02-10T08:01:06Z</time>
      </trkpt>
      <trkpt lat="48.95857" lon="3.14109">
        <ele>50.61</ele>
        <time>2014-02-10T08:01:14Z</time>
      </trkpt>
      <trkpt lat="48.95885" lon="3.14118">
        <ele>58.78</ele>
        <time>2014-02-10T08:01:26Z</time>
      </trkpt>
      <trkpt lat="48.959" lon="3.1413">
        <ele>60.7</ele>
        <time>2014-02-10T08:01:36Z</time>
      </trkpt>
      <trkpt lat="48.95915" lon="3.14137">
        <ele>60.7</ele>
        <time>2014-02-10T08:01:47Z</time>
      </trkpt>
      <trkpt lat="48.95926" lon="3.14144">
        <ele>61.66</ele>
        <time>2014-02-10T08:01:54Z</time>
      </trkpt>
      <trkpt lat="48.95929" lon="3.14145">
        <ele>61.18</ele>
        <time>2014-02-10T08:01:56Z</time>
      </trkpt>
      <trkpt lat="48.95946" lon="3.14155">
        <ele>60.22</ele>
        <time>2014-02-10T08:02:10Z</time>
      </trkpt>
      <trkpt lat="48.95952" lon="3.1416">
        <ele>60.22</ele>
        <time>2014-02-10T08:02:14Z</time>
      </trkpt>
      <trkpt lat="48.9597" lon="3.14172">
        <ele>60.7</ele>
        <time>2014-02-10T08:02:27Z</time>
      </trkpt>
      <trkpt lat="48.9599" lon="3.14192">
        <ele>58.78</ele>
        <time>2014-02-10T08:02:42Z</time>
      </trkpt>
      <trkpt lat="48.96002" lon="3.14203">
        <ele>56.86</ele>
        <time>2014-02-10T08:02:51Z</time>
      </trkpt>
      <trkpt lat="48.96022" lon="3.14225">
        <ele>54.93</ele>
        <time>2014-02-10T08:03:08Z</time>
      </trkpt>
      <trkpt lat="48.96036" lon="3.14244">
        <ele>54.93</ele>
        <time>2014-02-10T08:03:22Z</time>
      </trkpt>
      <trkpt lat="48.96049" lon="3.14268">
        <ele>53.01</ele>
        <time>2014-02-10T08:03:37Z</time>
      </trkpt>
      <trkpt lat="48.96052" lon="3.14272">
        <ele>53.01</ele>
        <time>2014-02-10T08:03:40Z</time>
      </trkpt>
      <trkpt lat="48.96057" lon="3.14282">
        <ele>52.05</ele>
        <time>2014-02-10T08:03:46Z</time>
      </trkpt>
      <trkpt lat="48.96072" lon="3.14315">
        <ele>52.05</ele>
        <time>2014-02-10T08:04:04Z</time>
      </trkpt>
      <trkpt lat="48.96082" lon="3.14336">
        <ele>51.57</ele>
        <time>2014-02-10T08:04:17Z</time>
      </trkpt>
      <trkpt lat="48.96084" lon="3.1434">
        <ele>51.57</ele>
        <time>2014-02-10T08:04:22Z</time>
      </trkpt>
      <trkpt lat="48.96072" lon="3.14362">
        <ele>52.05</ele>
        <time>2014-02-10T08:04:37Z</time>
      </trkpt>
      <trkpt lat="48.96055" lon="3.14393">
        <ele>53.97</ele>
        <time>2014-02-10T08:04:56Z</time>
      </trkpt>
      <trkpt lat="48.96041" lon="3.14419">
        <ele>53.97</ele>
        <time>2014-02-10T08:05:13Z</time>
      </trkpt>
      <trkpt lat="48.96026" lon="3.14446">
        <ele>54.93</ele>
        <time>2014-02-10T08:05:30Z</time>
      </trkpt>
      <trkpt lat="48.96015" lon="3.14463">
        <ele>54.93</ele>
        <time>2014-02-10T08:05:41Z</time>
      </trkpt>
      <trkpt lat="48.96015" lon="3.1447">
        <ele>54.93</ele>
        <time>2014-02-10T08:05:45Z</time>
      </trkpt>
      <trkpt lat="48.96021" lon="3.14481">
        <ele>54.93</ele>
        <time>2014-02-10T08:05:53Z</time>
      </trkpt>
      <trkpt lat="48.96033" lon="3.14505">
        <ele>54.93</ele>
        <time>2014-02-10T08:06:06Z</time>
      </trkpt>
      <trkpt lat="48.96047" lon="3.14524">
        <ele>54.45</ele>
        <time>2014-02-10T08:06:20Z</time>
      </trkpt>
      <trkpt lat="48.96049" lon="3.14527">
        <ele>54.45</ele>
        <time>2014-02-10T08:06:22Z</time>
      </trkpt>
      <trkpt lat="48.96061" lon="3.14545">
        <ele>53.49</ele>
        <time>2014-02-10T08:06:34Z</time>
      </trkpt>
      <trkpt lat="48.96065" lon="3.14552">
        <ele>53.49</ele>
        <time>2014-02-10T08:06:38Z</time>
      </trkpt>
      <trkpt lat="48.9608" lon="3.14576">
        <ele>54.45</ele>
        <time>2014-02-10T08:06:52Z</time>
      </trkpt>
      <trkpt lat="48.96086" lon="3.14585">
        <ele>53.97</ele>
        <time>2014-02-10T08:06:59Z</time>
      </trkpt>
      <trkpt lat="48.96099" lon="3.14619">
        <ele>55.41</ele>
        <time>2014-02-10T08:07:15Z</time>
      </trkpt>
      <trkpt lat="48.96108" lon="3.1464">
        <ele>55.41</ele>
        <time>2014-02-10T08:07:25Z</time>
      </trkpt>
      <trkpt lat="48.96119" lon="3.14664">
        <ele>55.89</ele>
        <time>2014-02-10T08:07:40Z</time>
      </trkpt>
      <trkpt lat="48.9612" lon="3.14666">
        <ele>55.41</ele>
        <time>2014-02-10T08:07:42Z</time>
      </trkpt>
      <trkpt lat="48.96124" lon="3.14674">
        <ele>54.93</ele>
        <time>2014-02-10T08:07:47Z</time>
      </trkpt>
      <trkpt lat="48.96136" lon="3.14699">
        <ele>53.49</ele>
        <time>2014-02-10T08:08:01Z</time>
      </trkpt>
      <trkpt lat="48.9614" lon="3.14709">
        <ele>53.49</ele>
        <time>2014-02-10T08:08:07Z</time>
      </trkpt>
      <trkpt lat="48.96146" lon="3.14717">
        <ele>53.01</ele>
        <time>2014-02-10T08:08:13Z</time>
      </trkpt>
      <trkpt lat="48.96152" lon="3.14735">
        <ele>53.01</ele>
        <time>2014-02-10T08:08:22Z</time>
      </trkpt>
      <trkpt lat="48.96155" lon="3.14742">
        <ele>52.53</ele>
        <time>2014-02-10T08:08:26Z</time>
      </trkpt>
      <trkpt lat="48.96161" lon="3.14754">
        <ele>52.05</ele>
        <time>2014-02-10T08:08:32Z</time>
      </trkpt>
      <trkpt lat="48.96153" lon="3.14778">
        <ele>52.53</ele>
        <time>2014-02-10T08:08:44Z</time>
      </trkpt>
      <trkpt lat="48.96147" lon="3.14802">
        <ele>53.49</ele>
        <time>2014-02-10T08:08:57Z</time>
      </trkpt>
      <trkpt lat="48.96132" lon="3.14818">
        <ele>56.37</ele>
        <time>2014-02-10T08:09:10Z</time>
      </trkpt>
      <trkpt lat="48.96128" lon="3.14822">
        <ele>56.86</ele>
        <time>2014-02-10T08:09:14Z</time>
      </trkpt>
      <trkpt lat="48.9611" lon="3.14828">
        <ele>58.3</ele>
        <time>2014-02-10T08:09:27Z</time>
      </trkpt>
      <trkpt lat="48.96093" lon="3.14837">
        <ele>58.3</ele>
        <time>2014-02-10T08:09:41Z</time>
      </trkpt>
      <trkpt lat="48.96081" lon="3.14849">
        <ele>58.78</ele>
        <time>2014-02-10T08:09:51Z</time>
      </trkpt>
      <trkpt lat="48.96069" lon="3.14862">
        <ele>59.26</ele>
        <time>2014-02-10T08:10:02Z</time>
      </trkpt>
      <trkpt lat="48.96052" lon="3.14886">
        <ele>60.7</ele>
        <time>2014-02-10T08:10:17Z</time>
      </trkpt>
      <trkpt lat="48.96037" lon="3.14903">
        <ele>65.51</ele>
        <time>2014-02-10T08:10:31Z</time>
      </trkpt>
      <trkpt lat="48.96019" lon="3.14927">
        <ele>67.43</ele>
        <time>2014-02-10T08:10:49Z</time>
      </trkpt>
      <trkpt lat="48.96014" lon="3.14935">
        <ele>67.43</ele>
        <time>2014-02-10T08:10:55Z</time>
      </trkpt>
      <trkpt lat="48.96009" lon="3.14944">
        <ele>68.39</ele>
        <time>2014-02-10T08:11:00Z</time>
      </trkpt>
      <trkpt lat="48.95997" lon="3.14962">
        <ele>69.35</ele>
        <time>2014-02-10T08:11:12Z</time>
      </trkpt>
      <trkpt lat="48.95986" lon="3.1498">
        <ele>70.31</ele>
        <time>2014-02-10T08:11:24Z</time>
      </trkpt>
      <trkpt lat="48.95971" lon="3.15001">
        <ele>73.2</ele>
        <time>2014-02-10T08:11:40Z</time>
      </trkpt>
      <trkpt lat="48.95956" lon="3.15024">
        <ele>78.97</ele>
        <time>2014-02-10T08:11:56Z</time>
      </trkpt>
      <trkpt lat="48.95938" lon="3.15043">
        <ele>81.37</ele>
        <time>2014-02-10T08:12:11Z</time>
      </trkpt>
      <trkpt lat="48.95933" lon="3.15049">
        <ele>82.33</ele>
        <time>2014-02-10T08:12:16Z</time>
      </trkpt>
      <trkpt lat="48.95929" lon="3.15055">
        <ele>82.81</ele>
        <time>2014-02-10T08:12:20Z</time>
      </trkpt>
      <trkpt lat="48.95913" lon="3.15078">
        <ele>87.62</ele>
        <time>2014-02-10T08:12:37Z</time>
      </trkpt>
      <trkpt lat="48.95901" lon="3.15093">
        <ele>94.83</ele>
        <time>2014-02-10T08:12:52Z</time>
      </trkpt>
      <trkpt lat="48.95894" lon="3.15102">
        <ele>97.71</ele>
        <time>2014-02-10T08:13:04Z</time>
      </trkpt>
      <trkpt lat="48.95889" lon="3.15106">
        <ele>98.67</ele>
        <time>2014-02-10T08:13:09Z</time>
      </trkpt>
      <trkpt lat="48.95874" lon="3.15119">
        <ele>99.63</ele>
        <time>2014-02-10T08:13:24Z</time>
      </trkpt>
      <trkpt lat="48.95866" lon="3.15124">
        <ele>100.11</ele>
        <time>2014-02-10T08:13:31Z</time>
      </trkpt>
      <trkpt lat="48.95863" lon="3.15124">
        <ele>100.6</ele>
        <time>2014-02-10T08:13:33Z</time>
      </trkpt>
      <trkpt lat="48.95847" lon="3.15129">
        <ele>99.63</ele>
        <time>2014-02-10T08:13:48Z</time>
      </trkpt>
      <trkpt lat="48.95831" lon="3.15131">
        <ele>100.6</ele>
        <time>2014-02-10T08:14:01Z</time>
      </trkpt>
      <trkpt lat="48.95815" lon="3.15135">
        <ele>101.56</ele>
        <time>2014-02-10T08:14:15Z</time>
      </trkpt>
      <trkpt lat="48.95801" lon="3.15134">
        <ele>101.56</ele>
        <time>2014-02-10T08:14:28Z</time>
      </trkpt>
      <trkpt lat="48.95786" lon="3.15139">
        <ele>102.52</ele>
        <time>2014-02-10T08:14:42Z</time>
      </trkpt>
      <trkpt lat="48.95771" lon="3.1515">
        <ele>102.04</ele>
        <time>2014-02-10T08:14:55Z</time>
      </trkpt>
      <trkpt lat="48.95762" lon="3.15158">
        <ele>99.63</ele>
        <time>2014-02-10T08:15:03Z</time>
      </trkpt>
      <trkpt lat="48.95761" lon="3.15165">
        <ele>99.15</ele>
        <time>2014-02-10T08:15:07Z</time>
      </trkpt>
      <trkpt lat="48.95758" lon="3.15169">
        <ele>99.63</ele>
        <time>2014-02-10T08:15:10Z</time>
      </trkpt>
      <trkpt lat="48.95749" lon="3.15183">
        <ele>103</ele>
        <time>2014-02-10T08:15:22Z</time>
      </trkpt>
      <trkpt lat="48.95744" lon="3.1519">
        <ele>105.4</ele>
        <time>2014-02-10T08:15:30Z</time>
      </trkpt>
      <trkpt lat="48.9574" lon="3.15192">
        <ele>105.88</ele>
        <time>2014-02-10T08:15:33Z</time>
      </trkpt>
      <trkpt lat="48.95736" lon="3.15198">
        <ele>106.84</ele>
        <time>2014-02-10T08:15:38Z</time>
      </trkpt>
      <trkpt lat="48.95723" lon="3.15211">
        <ele>106.36</ele>
        <time>2014-02-10T08:15:53Z</time>
      </trkpt>
      <trkpt lat="48.95716" lon="3.15213">
        <ele>108.29</ele>
        <time>2014-02-10T08:16:05Z</time>
      </trkpt>
      <trkpt lat="48.95714" lon="3.15219">
        <ele>109.25</ele>
        <time>2014-02-10T08:16:20Z</time>
      </trkpt>
      <trkpt lat="48.95714" lon="3.15219">
        <ele>109.25</ele>
        <time>2014-02-10T08:16:21Z</time>
      </trkpt>
      <trkpt lat="48.95698" lon="3.15208">
        <ele>110.69</ele>
        <time>2014-02-10T08:17:36Z</time>
      </trkpt>
      <trkpt lat="48.95699" lon="3.15221">
        <ele>111.17</ele>
        <time>2014-02-10T08:17:48Z</time>
      </trkpt>
      <trkpt lat="48.95699" lon="3.15221">
        <ele>111.17</ele>
        <time>2014-02-10T08:17:49Z</time>
      </trkpt>
      <trkpt lat="48.95693" lon="3.15227">
        <ele>113.09</ele>
        <time>2014-02-10T08:18:00Z</time>
      </trkpt>
      <trkpt lat="48.95687" lon="3.15239">
        <ele>115.01</ele>
        <time>2014-02-10T08:18:13Z</time>
      </trkpt>
      <trkpt lat="48.95686" lon="3.15241">
        <ele>115.01</ele>
        <time>2014-02-10T08:18:15Z</time>
      </trkpt>
      <trkpt lat="48.9568" lon="3.15255">
        <ele>115.5</ele>
        <time>2014-02-10T08:18:27Z</time>
      </trkpt>
      <trkpt lat="48.95679" lon="3.15269">
        <ele>116.46</ele>
        <time>2014-02-10T08:18:39Z</time>
      </trkpt>
      <trkpt lat="48.95683" lon="3.15286">
        <ele>118.86</ele>
        <time>2014-02-10T08:18:51Z</time>
      </trkpt>
      <trkpt lat="48.95688" lon="3.15304">
        <ele>121.74</ele>
        <time>2014-02-10T08:19:06Z</time>
      </trkpt>
      <trkpt lat="48.9569" lon="3.15325">
        <ele>124.63</ele>
        <time>2014-02-10T08:19:17Z</time>
      </trkpt>
      <trkpt lat="48.95691" lon="3.15338">
        <ele>127.03</ele>
        <time>2014-02-10T08:19:24Z</time>
      </trkpt>
      <trkpt lat="48.95691" lon="3.15345">
        <ele>127.51</ele>
        <time>2014-02-10T08:19:29Z</time>
      </trkpt>
      <trkpt lat="48.95694" lon="3.15353">
        <ele>128.47</ele>
        <time>2014-02-10T08:19:36Z</time>
      </trkpt>
      <trkpt lat="48.95697" lon="3.15365">
        <ele>130.4</ele>
        <time>2014-02-10T08:19:46Z</time>
      </trkpt>
      <trkpt lat="48.95699" lon="3.15389">
        <ele>133.76</ele>
        <time>2014-02-10T08:20:01Z</time>
      </trkpt>
      <trkpt lat="48.95702" lon="3.15413">
        <ele>137.61</ele>
        <time>2014-02-10T08:20:15Z</time>
      </trkpt>
      <trkpt lat="48.95704" lon="3.15437">
        <ele>144.82</ele>
        <time>2014-02-10T08:20:30Z</time>
      </trkpt>
      <trkpt lat="48.95706" lon="3.15457">
        <ele>147.22</ele>
        <time>2014-02-10T08:20:40Z</time>
      </trkpt>
      <trkpt lat="48.95712" lon="3.15484">
        <ele>146.74</ele>
        <time>2014-02-10T08:20:52Z</time>
      </trkpt>
      <trkpt lat="48.95714" lon="3.15497">
        <ele>145.78</ele>
        <time>2014-02-10T08:21:04Z</time>
      </trkpt>
      <trkpt lat="48.95714" lon="3.15517">
        <ele>145.78</ele>
        <time>2014-02-10T08:21:15Z</time>
      </trkpt>
      <trkpt lat="48.95716" lon="3.15533">
        <ele>146.74</ele>
        <time>2014-02-10T08:21:24Z</time>
      </trkpt>
      <trkpt lat="48.95718" lon="3.15551">
        <ele>145.78</ele>
        <time>2014-02-10T08:21:31Z</time>
      </trkpt>
      <trkpt lat="48.95719" lon="3.15578">
        <ele>145.3</ele>
        <time>2014-02-10T08:21:45Z</time>
      </trkpt>
      <trkpt lat="48.95722" lon="3.15601">
        <ele>148.18</ele>
        <time>2014-02-10T08:21:57Z</time>
      </trkpt>
      <trkpt lat="48.95722" lon="3.15612">
        <ele>152.03</ele>
        <time>2014-02-10T08:22:09Z</time>
      </trkpt>
      <trkpt lat="48.95718" lon="3.15622">
        <ele>152.99</ele>
        <time>2014-02-10T08:22:18Z</time>
      </trkpt>
      <trkpt lat="48.95719" lon="3.15638">
        <ele>152.03</ele>
        <time>2014-02-10T08:22:27Z</time>
      </trkpt>
      <trkpt lat="48.95718" lon="3.15658">
        <ele>151.06</ele>
        <time>2014-02-10T08:22:41Z</time>
      </trkpt>
      <trkpt lat="48.95719" lon="3.15688">
        <ele>152.03</ele>
        <time>2014-02-10T08:22:56Z</time>
      </trkpt>
      <trkpt lat="48.95719" lon="3.15699">
        <ele>152.99</ele>
        <time>2014-02-10T08:23:01Z</time>
      </trkpt>
      <trkpt lat="48.95718" lon="3.1571">
        <ele>153.47</ele>
        <time>2014-02-10T08:23:06Z</time>
      </trkpt>
      <trkpt lat="48.95717" lon="3.15713">
        <ele>153.47</ele>
        <time>2014-02-10T08:23:08Z</time>
      </trkpt>
      <trkpt lat="48.95719" lon="3.15735">
        <ele>150.1</ele>
        <time>2014-02-10T08:23:17Z</time>
      </trkpt>
      <trkpt lat="48.95726" lon="3.15757">
        <ele>145.78</ele>
        <time>2014-02-10T08:23:27Z</time>
      </trkpt>
      <trkpt lat="48.95727" lon="3.15762">
        <ele>145.3</ele>
        <time>2014-02-10T08:23:39Z</time>
      </trkpt>
      <trkpt lat="48.95736" lon="3.15786">
        <ele>142.89</ele>
        <time>2014-02-10T08:23:50Z</time>
      </trkpt>
      <trkpt lat="48.95736" lon="3.1579">
        <ele>142.41</ele>
        <time>2014-02-10T08:23:52Z</time>
      </trkpt>
      <trkpt lat="48.95737" lon="3.15801">
        <ele>141.93</ele>
        <time>2014-02-10T08:23:56Z</time>
      </trkpt>
      <trkpt lat="48.95744" lon="3.15824">
        <ele>138.57</ele>
        <time>2014-02-10T08:24:09Z</time>
      </trkpt>
      <trkpt lat="48.9575" lon="3.15835">
        <ele>138.09</ele>
        <time>2014-02-10T08:24:16Z</time>
      </trkpt>
      <trkpt lat="48.95764" lon="3.1586">
        <ele>141.45</ele>
        <time>2014-02-10T08:24:32Z</time>
      </trkpt>
      <trkpt lat="48.95773" lon="3.15882">
        <ele>145.78</ele>
        <time>2014-02-10T08:24:46Z</time>
      </trkpt>
      <trkpt lat="48.9578" lon="3.15898">
        <ele>149.62</ele>
        <time>2014-02-10T08:24:56Z</time>
      </trkpt>
      <trkpt lat="48.95791" lon="3.15929">
        <ele>153.47</ele>
        <time>2014-02-10T08:25:11Z</time>
      </trkpt>
      <trkpt lat="48.95798" lon="3.15953">
        <ele>155.87</ele>
        <time>2014-02-10T08:25:23Z</time>
      </trkpt>
      <trkpt lat="48.95808" lon="3.15975">
        <ele>160.2</ele>
        <time>2014-02-10T08:25:36Z</time>
      </trkpt>
      <trkpt lat="48.95818" lon="3.15999">
        <ele>162.12</ele>
        <time>2014-02-10T08:25:49Z</time>
      </trkpt>
      <trkpt lat="48.95823" lon="3.16027">
        <ele>158.75</ele>
        <time>2014-02-10T08:26:03Z</time>
      </trkpt>
      <trkpt lat="48.95833" lon="3.16055">
        <ele>154.91</ele>
        <time>2014-02-10T08:26:19Z</time>
      </trkpt>
      <trkpt lat="48.95848" lon="3.16087">
        <ele>150.1</ele>
        <time>2014-02-10T08:26:37Z</time>
      </trkpt>
      <trkpt lat="48.95856" lon="3.16099">
        <ele>147.22</ele>
        <time>2014-02-10T08:26:54Z</time>
      </trkpt>
      <trkpt lat="48.9586" lon="3.16106">
        <ele>147.22</ele>
        <time>2014-02-10T08:27:00Z</time>
      </trkpt>
      <trkpt lat="48.95876" lon="3.16135">
        <ele>146.74</ele>
        <time>2014-02-10T08:27:18Z</time>
      </trkpt>
      <trkpt lat="48.95891" lon="3.16158">
        <ele>145.78</ele>
        <time>2014-02-10T08:27:33Z</time>
      </trkpt>
      <trkpt lat="48.95905" lon="3.1618">
        <ele>146.74</ele>
        <time>2014-02-10T08:27:48Z</time>
      </trkpt>
      <trkpt lat="48.95917" lon="3.16207">
        <ele>148.66</ele>
        <time>2014-02-10T08:28:04Z</time>
      </trkpt>
      <trkpt lat="48.95927" lon="3.16228">
        <ele>150.1</ele>
        <time>2014-02-10T08:28:18Z</time>
      </trkpt>
      <trkpt lat="48.95936" lon="3.16252">
        <ele>154.43</ele>
        <time>2014-02-10T08:28:33Z</time>
      </trkpt>
      <trkpt lat="48.95938" lon="3.16277">
        <ele>157.79</ele>
        <time>2014-02-10T08:28:44Z</time>
      </trkpt>
      <trkpt lat="48.95941" lon="3.16298">
        <ele>157.79</ele>
        <time>2014-02-10T08:28:54Z</time>
      </trkpt>
      <trkpt lat="48.95942" lon="3.16326">
        <ele>159.72</ele>
        <time>2014-02-10T08:29:09Z</time>
      </trkpt>
      <trkpt lat="48.95941" lon="3.16335">
        <ele>160.2</ele>
        <time>2014-02-10T08:29:14Z</time>
      </trkpt>
      <trkpt lat="48.95943" lon="3.16367">
        <ele>162.6</ele>
        <time>2014-02-10T08:29:30Z</time>
      </trkpt>
      <trkpt lat="48.95944" lon="3.1638">
        <ele>164.04</ele>
        <time>2014-02-10T08:29:38Z</time>
      </trkpt>
      <trkpt lat="48.95943" lon="3.1642">
        <ele>164.04</ele>
        <time>2014-02-10T08:30:00Z</time>
      </trkpt>
      <trkpt lat="48.95942" lon="3.16454">
        <ele>164.52</ele>
        <time>2014-02-10T08:30:18Z</time>
      </trkpt>
      <trkpt lat="48.95943" lon="3.16466">
        <ele>165</ele>
        <time>2014-02-10T08:30:23Z</time>
      </trkpt>
      <trkpt lat="48.95944" lon="3.16483">
        <ele>166.45</ele>
        <time>2014-02-10T08:30:32Z</time>
      </trkpt>
      <trkpt lat="48.9595" lon="3.1653">
        <ele>169.33</ele>
        <time>2014-02-10T08:30:53Z</time>
      </trkpt>
      <trkpt lat="48.95948" lon="3.16561">
        <ele>170.77</ele>
        <time>2014-02-10T08:31:09Z</time>
      </trkpt>
      <trkpt lat="48.95945" lon="3.16582">
        <ele>171.73</ele>
        <time>2014-02-10T08:31:20Z</time>
      </trkpt>
      <trkpt lat="48.95945" lon="3.16606">
        <ele>171.25</ele>
        <time>2014-02-10T08:31:35Z</time>
      </trkpt>
      <trkpt lat="48.95947" lon="3.16624">
        <ele>173.66</ele>
        <time>2014-02-10T08:31:48Z</time>
      </trkpt>
      <trkpt lat="48.95947" lon="3.16644">
        <ele>179.42</ele>
        <time>2014-02-10T08:32:01Z</time>
      </trkpt>
      <trkpt lat="48.95946" lon="3.1666">
        <ele>181.83</ele>
        <time>2014-02-10T08:32:08Z</time>
      </trkpt>
      <trkpt lat="48.95949" lon="3.16686">
        <ele>185.67</ele>
        <time>2014-02-10T08:32:22Z</time>
      </trkpt>
      <trkpt lat="48.95949" lon="3.16689">
        <ele>186.63</ele>
        <time>2014-02-10T08:32:24Z</time>
      </trkpt>
      <trkpt lat="48.95949" lon="3.16715">
        <ele>188.56</ele>
        <time>2014-02-10T08:32:39Z</time>
      </trkpt>
      <trkpt lat="48.95947" lon="3.16738">
        <ele>192.4</ele>
        <time>2014-02-10T08:32:51Z</time>
      </trkpt>
      <trkpt lat="48.95945" lon="3.16754">
        <ele>195.77</ele>
        <time>2014-02-10T08:32:59Z</time>
      </trkpt>
      <trkpt lat="48.95928" lon="3.16789">
        <ele>198.65</ele>
        <time>2014-02-10T08:33:12Z</time>
      </trkpt>
      <trkpt lat="48.95924" lon="3.16801">
        <ele>198.65</ele>
        <time>2014-02-10T08:33:17Z</time>
      </trkpt>
      <trkpt lat="48.95916" lon="3.16812">
        <ele>194.8</ele>
        <time>2014-02-10T08:33:22Z</time>
      </trkpt>
      <trkpt lat="48.95906" lon="3.16836">
        <ele>190.96</ele>
        <time>2014-02-10T08:33:33Z</time>
      </trkpt>
      <trkpt lat="48.95901" lon="3.16849">
        <ele>190.96</ele>
        <time>2014-02-10T08:33:39Z</time>
      </trkpt>
      <trkpt lat="48.95894" lon="3.16884">
        <ele>190.48</ele>
        <time>2014-02-10T08:33:56Z</time>
      </trkpt>
      <trkpt lat="48.95894" lon="3.16904">
        <ele>188.56</ele>
        <time>2014-02-10T08:34:07Z</time>
      </trkpt>
      <trkpt lat="48.95901" lon="3.16927">
        <ele>187.59</ele>
        <time>2014-02-10T08:34:18Z</time>
      </trkpt>
      <trkpt lat="48.95905" lon="3.16944">
        <ele>186.15</ele>
        <time>2014-02-10T08:34:27Z</time>
      </trkpt>
      <trkpt lat="48.95916" lon="3.16966">
        <ele>186.63</ele>
        <time>2014-02-10T08:34:39Z</time>
      </trkpt>
      <trkpt lat="48.95925" lon="3.16986">
        <ele>189.04</ele>
        <time>2014-02-10T08:34:52Z</time>
      </trkpt>
      <trkpt lat="48.95936" lon="3.17007">
        <ele>190.48</ele>
        <time>2014-02-10T08:35:03Z</time>
      </trkpt>
      <trkpt lat="48.95936" lon="3.17008">
        <ele>190.48</ele>
        <time>2014-02-10T08:35:04Z</time>
      </trkpt>
      <trkpt lat="48.95945" lon="3.17031">
        <ele>189.04</ele>
        <time>2014-02-10T08:35:17Z</time>
      </trkpt>
      <trkpt lat="48.95949" lon="3.1706">
        <ele>184.71</ele>
        <time>2014-02-10T08:35:30Z</time>
      </trkpt>
      <trkpt lat="48.95946" lon="3.17082">
        <ele>185.19</ele>
        <time>2014-02-10T08:35:41Z</time>
      </trkpt>
      <trkpt lat="48.95942" lon="3.17099">
        <ele>186.15</ele>
        <time>2014-02-10T08:35:50Z</time>
      </trkpt>
      <trkpt lat="48.95935" lon="3.17133">
        <ele>185.67</ele>
        <time>2014-02-10T08:36:09Z</time>
      </trkpt>
      <trkpt lat="48.95928" lon="3.17172">
        <ele>185.19</ele>
        <time>2014-02-10T08:36:29Z</time>
      </trkpt>
      <trkpt lat="48.95924" lon="3.17192">
        <ele>184.23</ele>
        <time>2014-02-10T08:36:45Z</time>
      </trkpt>
      <trkpt lat="48.95922" lon="3.17203">
        <ele>184.71</ele>
        <time>2014-02-10T08:37:03Z</time>
      </trkpt>
      <trkpt lat="48.95914" lon="3.17231">
        <ele>186.63</ele>
        <time>2014-02-10T08:37:19Z</time>
      </trkpt>
      <trkpt lat="48.95904" lon="3.17264">
        <ele>186.15</ele>
        <time>2014-02-10T08:37:34Z</time>
      </trkpt>
      <trkpt lat="48.95897" lon="3.17293">
        <ele>185.67</ele>
        <time>2014-02-10T08:37:48Z</time>
      </trkpt>
      <trkpt lat="48.95899" lon="3.17322">
        <ele>184.23</ele>
        <time>2014-02-10T08:38:03Z</time>
      </trkpt>
      <trkpt lat="48.95901" lon="3.17363">
        <ele>183.75</ele>
        <time>2014-02-10T08:38:23Z</time>
      </trkpt>
      <trkpt lat="48.95892" lon="3.17396">
        <ele>181.83</ele>
        <time>2014-02-10T08:38:40Z</time>
      </trkpt>
      <trkpt lat="48.95883" lon="3.17433">
        <ele>180.87</ele>
        <time>2014-02-10T08:39:00Z</time>
      </trkpt>
      <trkpt lat="48.95875" lon="3.17468">
        <ele>180.38</ele>
        <time>2014-02-10T08:39:17Z</time>
      </trkpt>
      <trkpt lat="48.95869" lon="3.17494">
        <ele>179.9</ele>
        <time>2014-02-10T08:39:31Z</time>
      </trkpt>
      <trkpt lat="48.9586" lon="3.17523">
        <ele>180.38</ele>
        <time>2014-02-10T08:39:46Z</time>
      </trkpt>
      <trkpt lat="48.95851" lon="3.17552">
        <ele>180.38</ele>
        <time>2014-02-10T08:40:01Z</time>
      </trkpt>
      <trkpt lat="48.95847" lon="3.17564">
        <ele>181.35</ele>
        <time>2014-02-10T08:40:06Z</time>
      </trkpt>
      <trkpt lat="48.95839" lon="3.17591">
        <ele>179.9</ele>
        <time>2014-02-10T08:40:20Z</time>
      </trkpt>
      <trkpt lat="48.95835" lon="3.17616">
        <ele>176.54</ele>
        <time>2014-02-10T08:40:32Z</time>
      </trkpt>
      <trkpt lat="48.9583" lon="3.17634">
        <ele>176.06</ele>
        <time>2014-02-10T08:40:43Z</time>
      </trkpt>
      <trkpt lat="48.95831" lon="3.17648">
        <ele>174.62</ele>
        <time>2014-02-10T08:40:49Z</time>
      </trkpt>
      <trkpt lat="48.95834" lon="3.17675">
        <ele>169.33</ele>
        <time>2014-02-10T08:41:02Z</time>
      </trkpt>
      <trkpt lat="48.95836" lon="3.17698">
        <ele>169.33</ele>
        <time>2014-02-10T08:41:14Z</time>
      </trkpt>
      <trkpt lat="48.95841" lon="3.17718">
        <ele>167.89</ele>
        <time>2014-02-10T08:41:25Z</time>
      </trkpt>
      <trkpt lat="48.95841" lon="3.17719">
        <ele>168.37</ele>
        <time>2014-02-10T08:41:29Z</time>
      </trkpt>
      <trkpt lat="48.9584" lon="3.17729">
        <ele>167.89</ele>
        <time>2014-02-10T08:41:34Z</time>
      </trkpt>
      <trkpt lat="48.95838" lon="3.17754">
        <ele>165</ele>
        <time>2014-02-10T08:41:47Z</time>
      </trkpt>
      <trkpt lat="48.95838" lon="3.17757">
        <ele>165</ele>
        <time>2014-02-10T08:41:48Z</time>
      </trkpt>
      <trkpt lat="48.95838" lon="3.17768">
        <ele>164.04</ele>
        <time>2014-02-10T08:41:52Z</time>
      </trkpt>
      <trkpt lat="48.95838" lon="3.17784">
        <ele>161.64</ele>
        <time>2014-02-10T08:42:05Z</time>
      </trkpt>
      <trkpt lat="48.95836" lon="3.17808">
        <ele>159.72</ele>
        <time>2014-02-10T08:42:20Z</time>
      </trkpt>
      <trkpt lat="48.95833" lon="3.17821">
        <ele>161.16</ele>
        <time>2014-02-10T08:42:25Z</time>
      </trkpt>
      <trkpt lat="48.9582" lon="3.17837">
        <ele>159.24</ele>
        <time>2014-02-10T08:42:40Z</time>
      </trkpt>
      <trkpt lat="48.95813" lon="3.17844">
        <ele>158.75</ele>
        <time>2014-02-10T08:42:52Z</time>
      </trkpt>
      <trkpt lat="48.95813" lon="3.17845">
        <ele>158.75</ele>
        <time>2014-02-10T08:43:08Z</time>
      </trkpt>
      <trkpt lat="48.95814" lon="3.17848">
        <ele>158.27</ele>
        <time>2014-02-10T08:43:18Z</time>
      </trkpt>
      <trkpt lat="48.95824" lon="3.17838">
        <ele>159.24</ele>
        <time>2014-02-10T08:43:31Z</time>
      </trkpt>
      <trkpt lat="48.95829" lon="3.17827">
        <ele>160.2</ele>
        <time>2014-02-10T08:43:45Z</time>
      </trkpt>
      <trkpt lat="48.95836" lon="3.17804">
        <ele>159.72</ele>
        <time>2014-02-10T08:43:58Z</time>
      </trkpt>
      <trkpt lat="48.95836" lon="3.17796">
        <ele>160.68</ele>
        <time>2014-02-10T08:44:04Z</time>
      </trkpt>
      <trkpt lat="48.9584" lon="3.17777">
        <ele>161.64</ele>
        <time>2014-02-10T08:44:17Z</time>
      </trkpt>
      <trkpt lat="48.95842" lon="3.17753">
        <ele>162.6</ele>
        <time>2014-02-10T08:44:32Z</time>
      </trkpt>
      <trkpt lat="48.95846" lon="3.17736">
        <ele>162.12</ele>
        <time>2014-02-10T08:44:44Z</time>
      </trkpt>
      <trkpt lat="48.95864" lon="3.1774">
        <ele>161.16</ele>
        <time>2014-02-10T08:45:01Z</time>
      </trkpt>
      <trkpt lat="48.95887" lon="3.17761">
        <ele>155.87</ele>
        <time>2014-02-10T08:45:21Z</time>
      </trkpt>
      <trkpt lat="48.9589" lon="3.17761">
        <ele>157.79</ele>
        <time>2014-02-10T08:45:33Z</time>
      </trkpt>
      <trkpt lat="48.9589" lon="3.17763">
        <ele>159.72</ele>
        <time>2014-02-10T08:45:37Z</time>
      </trkpt>
      <trkpt lat="48.9589" lon="3.17764">
        <ele>160.68</ele>
        <time>2014-02-10T08:45:53Z</time>
      </trkpt>
      <trkpt lat="48.95892" lon="3.17764">
        <ele>161.64</ele>
        <time>2014-02-10T08:46:09Z</time>
      </trkpt>
      <trkpt lat="48.95892" lon="3.17764">
        <ele>161.64</ele>
        <time>2014-02-10T08:46:10Z</time>
      </trkpt>
      <trkpt lat="48.95897" lon="3.17768">
        <ele>162.12</ele>
        <time>2014-02-10T08:46:14Z</time>
      </trkpt>
      <trkpt lat="48.95901" lon="3.17769">
        <ele>162.6</ele>
        <time>2014-02-10T08:46:17Z</time>
      </trkpt>
      <trkpt lat="48.95924" lon="3.1778">
        <ele>164.04</ele>
        <time>2014-02-10T08:46:36Z</time>
      </trkpt>
      <trkpt lat="48.95947" lon="3.17781">
        <ele>164.52</ele>
        <time>2014-02-10T08:46:53Z</time>
      </trkpt>
      <trkpt lat="48.95979" lon="3.17797">
        <ele>163.56</ele>
        <time>2014-02-10T08:47:19Z</time>
      </trkpt>
      <trkpt lat="48.96007" lon="3.17806">
        <ele>163.08</ele>
        <time>2014-02-10T08:47:39Z</time>
      </trkpt>
      <trkpt lat="48.96009" lon="3.17807">
        <ele>162.6</ele>
        <time>2014-02-10T08:47:41Z</time>
      </trkpt>
      <trkpt lat="48.96021" lon="3.17814">
        <ele>162.12</ele>
        <time>2014-02-10T08:47:52Z</time>
      </trkpt>
      <trkpt lat="48.96026" lon="3.17816">
        <ele>162.12</ele>
        <time>2014-02-10T08:47:56Z</time>
      </trkpt>
      <trkpt lat="48.96039" lon="3.1782">
        <ele>163.56</ele>
        <time>2014-02-10T08:48:05Z</time>
      </trkpt>
      <trkpt lat="48.96122" lon="3.17782">
        <ele>171.73</ele>
        <time>2014-02-10T08:49:50Z</time>
      </trkpt>
      <trkpt lat="48.96123" lon="3.17788">
        <ele>168.85</ele>
        <time>2014-02-10T08:51:32Z</time>
      </trkpt>
      <trkpt lat="48.96145" lon="3.17786">
        <ele>167.41</ele>
        <time>2014-02-10T08:51:49Z</time>
      </trkpt>
      <trkpt lat="48.96162" lon="3.17796">
        <ele>164.52</ele>
        <time>2014-02-10T08:52:03Z</time>
      </trkpt>
      <trkpt lat="48.96178" lon="3.17808">
        <ele>162.6</ele>
        <time>2014-02-10T08:52:17Z</time>
      </trkpt>
      <trkpt lat="48.96197" lon="3.1782">
        <ele>161.64</ele>
        <time>2014-02-10T08:52:32Z</time>
      </trkpt>
      <trkpt lat="48.96216" lon="3.17828">
        <ele>160.68</ele>
        <time>2014-02-10T08:52:44Z</time>
      </trkpt>
      <trkpt lat="48.96241" lon="3.17839">
        <ele>158.27</ele>
        <time>2014-02-10T08:53:01Z</time>
      </trkpt>
      <trkpt lat="48.96267" lon="3.1785">
        <ele>157.31</ele>
        <time>2014-02-10T08:53:20Z</time>
      </trkpt>
      <trkpt lat="48.96295" lon="3.17855">
        <ele>158.27</ele>
        <time>2014-02-10T08:53:40Z</time>
      </trkpt>
      <trkpt lat="48.96323" lon="3.17863">
        <ele>160.2</ele>
        <time>2014-02-10T08:54:00Z</time>
      </trkpt>
      <trkpt lat="48.9635" lon="3.17872">
        <ele>161.64</ele>
        <time>2014-02-10T08:54:19Z</time>
      </trkpt>
      <trkpt lat="48.96363" lon="3.17877">
        <ele>161.64</ele>
        <time>2014-02-10T08:54:29Z</time>
      </trkpt>
      <trkpt lat="48.96366" lon="3.17882">
        <ele>161.64</ele>
        <time>2014-02-10T08:54:38Z</time>
      </trkpt>
      <trkpt lat="48.96359" lon="3.17893">
        <ele>162.6</ele>
        <time>2014-02-10T08:54:47Z</time>
      </trkpt>
      <trkpt lat="48.96341" lon="3.179">
        <ele>163.56</ele>
        <time>2014-02-10T08:55:04Z</time>
      </trkpt>
      <trkpt lat="48.9634" lon="3.17902">
        <ele>163.56</ele>
        <time>2014-02-10T08:55:08Z</time>
      </trkpt>
      <trkpt lat="48.96334" lon="3.17907">
        <ele>164.52</ele>
        <time>2014-02-10T08:55:22Z</time>
      </trkpt>
      <trkpt lat="48.96332" lon="3.1791">
        <ele>165</ele>
        <time>2014-02-10T08:55:25Z</time>
      </trkpt>
      <trkpt lat="48.96326" lon="3.1793">
        <ele>168.37</ele>
        <time>2014-02-10T08:55:40Z</time>
      </trkpt>
      <trkpt lat="48.96325" lon="3.17933">
        <ele>168.37</ele>
        <time>2014-02-10T08:55:42Z</time>
      </trkpt>
      <trkpt lat="48.9632" lon="3.17968">
        <ele>163.56</ele>
        <time>2014-02-10T08:56:01Z</time>
      </trkpt>
      <trkpt lat="48.9632" lon="3.17979">
        <ele>163.08</ele>
        <time>2014-02-10T08:56:07Z</time>
      </trkpt>
      <trkpt lat="48.96326" lon="3.18019">
        <ele>160.68</ele>
        <time>2014-02-10T08:56:22Z</time>
      </trkpt>
      <trkpt lat="48.96338" lon="3.18046">
        <ele>158.75</ele>
        <time>2014-02-10T08:56:38Z</time>
      </trkpt>
      <trkpt lat="48.96347" lon="3.1807">
        <ele>158.75</ele>
        <time>2014-02-10T08:56:53Z</time>
      </trkpt>
      <trkpt lat="48.9636" lon="3.18099">
        <ele>158.27</ele>
        <time>2014-02-10T08:57:08Z</time>
      </trkpt>
      <trkpt lat="48.9637" lon="3.18123">
        <ele>158.27</ele>
        <time>2014-02-10T08:57:24Z</time>
      </trkpt>
      <trkpt lat="48.96378" lon="3.18146">
        <ele>157.31</ele>
        <time>2014-02-10T08:57:35Z</time>
      </trkpt>
      <trkpt lat="48.96386" lon="3.18155">
        <ele>155.39</ele>
        <time>2014-02-10T08:57:45Z</time>
      </trkpt>
      <trkpt lat="48.9639" lon="3.18164">
        <ele>155.39</ele>
        <time>2014-02-10T08:57:52Z</time>
      </trkpt>
      <trkpt lat="48.96401" lon="3.18184">
        <ele>154.43</ele>
        <time>2014-02-10T08:58:07Z</time>
      </trkpt>
      <trkpt lat="48.96402" lon="3.18188">
        <ele>154.43</ele>
        <time>2014-02-10T08:58:09Z</time>
      </trkpt>
      <trkpt lat="48.96412" lon="3.18204">
        <ele>153.95</ele>
        <time>2014-02-10T08:58:22Z</time>
      </trkpt>
      <trkpt lat="48.96424" lon="3.18222">
        <ele>152.99</ele>
        <time>2014-02-10T08:58:37Z</time>
      </trkpt>
      <trkpt lat="48.96432" lon="3.18232">
        <ele>152.99</ele>
        <time>2014-02-10T08:58:46Z</time>
      </trkpt>
      <trkpt lat="48.96441" lon="3.18255">
        <ele>154.91</ele>
        <time>2014-02-10T08:59:00Z</time>
      </trkpt>
      <trkpt lat="48.96442" lon="3.18257">
        <ele>154.91</ele>
        <time>2014-02-10T08:59:01Z</time>
      </trkpt>
      <trkpt lat="48.96452" lon="3.18278">
        <ele>152.99</ele>
        <time>2014-02-10T08:59:11Z</time>
      </trkpt>
      <trkpt lat="48.96456" lon="3.18285">
        <ele>152.51</ele>
        <time>2014-02-10T08:59:15Z</time>
      </trkpt>
      <trkpt lat="48.96463" lon="3.18292">
        <ele>152.03</ele>
        <time>2014-02-10T08:59:19Z</time>
      </trkpt>
      <trkpt lat="48.96473" lon="3.18306">
        <ele>150.58</ele>
        <time>2014-02-10T08:59:28Z</time>
      </trkpt>
      <trkpt lat="48.96487" lon="3.18322">
        <ele>148.66</ele>
        <time>2014-02-10T08:59:40Z</time>
      </trkpt>
      <trkpt lat="48.96499" lon="3.18341">
        <ele>146.26</ele>
        <time>2014-02-10T08:59:53Z</time>
      </trkpt>
      <trkpt lat="48.96518" lon="3.18361">
        <ele>144.34</ele>
        <time>2014-02-10T09:00:07Z</time>
      </trkpt>
      <trkpt lat="48.96519" lon="3.18363">
        <ele>144.34</ele>
        <time>2014-02-10T09:00:09Z</time>
      </trkpt>
      <trkpt lat="48.96538" lon="3.18383">
        <ele>143.37</ele>
        <time>2014-02-10T09:00:26Z</time>
      </trkpt>
      <trkpt lat="48.96558" lon="3.184">
        <ele>142.89</ele>
        <time>2014-02-10T09:00:41Z</time>
      </trkpt>
      <trkpt lat="48.96577" lon="3.1841">
        <ele>141.93</ele>
        <time>2014-02-10T09:00:56Z</time>
      </trkpt>
      <trkpt lat="48.96596" lon="3.18421">
        <ele>140.49</ele>
        <time>2014-02-10T09:01:12Z</time>
      </trkpt>
      <trkpt lat="48.96618" lon="3.18432">
        <ele>138.09</ele>
        <time>2014-02-10T09:01:28Z</time>
      </trkpt>
      <trkpt lat="48.96637" lon="3.18443">
        <ele>136.16</ele>
        <time>2014-02-10T09:01:44Z</time>
      </trkpt>
      <trkpt lat="48.96647" lon="3.18449">
        <ele>134.24</ele>
        <time>2014-02-10T09:01:52Z</time>
      </trkpt>
      <trkpt lat="48.96661" lon="3.18458">
        <ele>131.84</ele>
        <time>2014-02-10T09:02:05Z</time>
      </trkpt>
      <trkpt lat="48.96676" lon="3.18467">
        <ele>130.4</ele>
        <time>2014-02-10T09:02:18Z</time>
      </trkpt>
      <trkpt lat="48.96691" lon="3.18476">
        <ele>128.47</ele>
        <time>2014-02-10T09:02:35Z</time>
      </trkpt>
      <trkpt lat="48.96695" lon="3.18481">
        <ele>126.55</ele>
        <time>2014-02-10T09:02:56Z</time>
      </trkpt>
      <trkpt lat="48.96705" lon="3.18482">
        <ele>122.71</ele>
        <time>2014-02-10T09:03:10Z</time>
      </trkpt>
      <trkpt lat="48.96714" lon="3.18486">
        <ele>118.86</ele>
        <time>2014-02-10T09:03:23Z</time>
      </trkpt>
      <trkpt lat="48.96726" lon="3.18489">
        <ele>116.94</ele>
        <time>2014-02-10T09:03:36Z</time>
      </trkpt>
      <trkpt lat="48.96732" lon="3.18491">
        <ele>116.46</ele>
        <time>2014-02-10T09:03:41Z</time>
      </trkpt>
      <trkpt lat="48.96735" lon="3.18493">
        <ele>115.98</ele>
        <time>2014-02-10T09:03:44Z</time>
      </trkpt>
      <trkpt lat="48.96754" lon="3.18495">
        <ele>115.98</ele>
        <time>2014-02-10T09:03:59Z</time>
      </trkpt>
      <trkpt lat="48.96769" lon="3.18494">
        <ele>115.5</ele>
        <time>2014-02-10T09:04:14Z</time>
      </trkpt>
      <trkpt lat="48.96787" lon="3.18495">
        <ele>113.57</ele>
        <time>2014-02-10T09:04:28Z</time>
      </trkpt>
      <trkpt lat="48.96802" lon="3.18494">
        <ele>113.57</ele>
        <time>2014-02-10T09:04:40Z</time>
      </trkpt>
      <trkpt lat="48.96818" lon="3.18491">
        <ele>113.09</ele>
        <time>2014-02-10T09:04:54Z</time>
      </trkpt>
      <trkpt lat="48.96836" lon="3.18484">
        <ele>113.09</ele>
        <time>2014-02-10T09:05:10Z</time>
      </trkpt>
      <trkpt lat="48.96837" lon="3.18482">
        <ele>113.09</ele>
        <time>2014-02-10T09:05:18Z</time>
      </trkpt>
      <trkpt lat="48.96854" lon="3.18475">
        <ele>112.61</ele>
        <time>2014-02-10T09:05:34Z</time>
      </trkpt>
      <trkpt lat="48.96872" lon="3.18466">
        <ele>111.17</ele>
        <time>2014-02-10T09:05:50Z</time>
      </trkpt>
      <trkpt lat="48.96893" lon="3.18452">
        <ele>111.17</ele>
        <time>2014-02-10T09:06:08Z</time>
      </trkpt>
      <trkpt lat="48.96911" lon="3.18441">
        <ele>111.65</ele>
        <time>2014-02-10T09:06:22Z</time>
      </trkpt>
      <trkpt lat="48.96937" lon="3.18429">
        <ele>114.05</ele>
        <time>2014-02-10T09:06:40Z</time>
      </trkpt>
      <trkpt lat="48.96956" lon="3.18416">
        <ele>114.05</ele>
        <time>2014-02-10T09:06:55Z</time>
      </trkpt>
      <trkpt lat="48.96979" lon="3.18409">
        <ele>110.21</ele>
        <time>2014-02-10T09:07:11Z</time>
      </trkpt>
      <trkpt lat="48.97" lon="3.18392">
        <ele>108.29</ele>
        <time>2014-02-10T09:07:27Z</time>
      </trkpt>
      <trkpt lat="48.97015" lon="3.18388">
        <ele>107.32</ele>
        <time>2014-02-10T09:07:38Z</time>
      </trkpt>
      <trkpt lat="48.97036" lon="3.18413">
        <ele>103.96</ele>
        <time>2014-02-10T09:07:56Z</time>
      </trkpt>
      <trkpt lat="48.97053" lon="3.18435">
        <ele>101.56</ele>
        <time>2014-02-10T09:08:11Z</time>
      </trkpt>
      <trkpt lat="48.97056" lon="3.18443">
        <ele>96.27</ele>
        <time>2014-02-10T09:08:23Z</time>
      </trkpt>
      <trkpt lat="48.97052" lon="3.18448">
        <ele>93.87</ele>
        <time>2014-02-10T09:08:29Z</time>
      </trkpt>
      <trkpt lat="48.97056" lon="3.18448">
        <ele>92.42</ele>
        <time>2014-02-10T09:08:33Z</time>
      </trkpt>
      <trkpt lat="48.97077" lon="3.18465">
        <ele>87.62</ele>
        <time>2014-02-10T09:08:51Z</time>
      </trkpt>
      <trkpt lat="48.97092" lon="3.18482">
        <ele>86.66</ele>
        <time>2014-02-10T09:09:05Z</time>
      </trkpt>
      <trkpt lat="48.97083" lon="3.18506">
        <ele>87.14</ele>
        <time>2014-02-10T09:09:21Z</time>
      </trkpt>
      <trkpt lat="48.97076" lon="3.18518">
        <ele>86.66</ele>
        <time>2014-02-10T09:09:29Z</time>
      </trkpt>
      <trkpt lat="48.9707" lon="3.18525">
        <ele>86.66</ele>
        <time>2014-02-10T09:09:35Z</time>
      </trkpt>
      <trkpt lat="48.97065" lon="3.18531">
        <ele>86.18</ele>
        <time>2014-02-10T09:09:41Z</time>
      </trkpt>
      <trkpt lat="48.97063" lon="3.1854">
        <ele>85.69</ele>
        <time>2014-02-10T09:09:55Z</time>
      </trkpt>
      <trkpt lat="48.97061" lon="3.18569">
        <ele>83.29</ele>
        <time>2014-02-10T09:10:09Z</time>
      </trkpt>
      <trkpt lat="48.97064" lon="3.18617">
        <ele>83.29</ele>
        <time>2014-02-10T09:10:32Z</time>
      </trkpt>
      <trkpt lat="48.97062" lon="3.18651">
        <ele>81.85</ele>
        <time>2014-02-10T09:10:49Z</time>
      </trkpt>
      <trkpt lat="48.9706" lon="3.1865">
        <ele>79.45</ele>
        <time>2014-02-10T09:11:10Z</time>
      </trkpt>
      <trkpt lat="48.97061" lon="3.1865">
        <ele>78.48</ele>
        <time>2014-02-10T09:11:25Z</time>
      </trkpt>
      <trkpt lat="48.97061" lon="3.18651">
        <ele>78</ele>
        <time>2014-02-10T09:11:38Z</time>
      </trkpt>
      <trkpt lat="48.97065" lon="3.18681">
        <ele>75.12</ele>
        <time>2014-02-10T09:11:51Z</time>
      </trkpt>
      <trkpt lat="48.97065" lon="3.18701">
        <ele>73.68</ele>
        <time>2014-02-10T09:12:05Z</time>
      </trkpt>
      <trkpt lat="48.97065" lon="3.18702">
        <ele>72.72</ele>
        <time>2014-02-10T09:12:21Z</time>
      </trkpt>
      <trkpt lat="48.9706" lon="3.18732">
        <ele>71.76</ele>
        <time>2014-02-10T09:12:36Z</time>
      </trkpt>
      <trkpt lat="48.97059" lon="3.18751">
        <ele>70.79</ele>
        <time>2014-02-10T09:12:45Z</time>
      </trkpt>
      <trkpt lat="48.97056" lon="3.18759">
        <ele>71.27</ele>
        <time>2014-02-10T09:12:51Z</time>
      </trkpt>
      <trkpt lat="48.97049" lon="3.18771">
        <ele>71.27</ele>
        <time>2014-02-10T09:12:58Z</time>
      </trkpt>
      <trkpt lat="48.97046" lon="3.18806">
        <ele>70.79</ele>
        <time>2014-02-10T09:13:14Z</time>
      </trkpt>
      <trkpt lat="48.97043" lon="3.18838">
        <ele>70.31</ele>
        <time>2014-02-10T09:13:29Z</time>
      </trkpt>
      <trkpt lat="48.9704" lon="3.18873">
        <ele>68.39</ele>
        <time>2014-02-10T09:13:45Z</time>
      </trkpt>
      <trkpt lat="48.97035" lon="3.18899">
        <ele>65.99</ele>
        <time>2014-02-10T09:13:58Z</time>
      </trkpt>
      <trkpt lat="48.97032" lon="3.18929">
        <ele>64.07</ele>
        <time>2014-02-10T09:14:12Z</time>
      </trkpt>
      <trkpt lat="48.97029" lon="3.18933">
        <ele>62.14</ele>
        <time>2014-02-10T09:14:27Z</time>
      </trkpt>
      <trkpt lat="48.97027" lon="3.18933">
        <ele>59.74</ele>
        <time>2014-02-10T09:14:54Z</time>
      </trkpt>
      <trkpt lat="48.97024" lon="3.18967">
        <ele>59.26</ele>
        <time>2014-02-10T09:15:12Z</time>
      </trkpt>
      <trkpt lat="48.97023" lon="3.18973">
        <ele>59.26</ele>
        <time>2014-02-10T09:15:15Z</time>
      </trkpt>
      <trkpt lat="48.97021" lon="3.19007">
        <ele>57.34</ele>
        <time>2014-02-10T09:15:30Z</time>
      </trkpt>
      <trkpt lat="48.97026" lon="3.19024">
        <ele>56.37</ele>
        <time>2014-02-10T09:15:40Z</time>
      </trkpt>
      <trkpt lat="48.9703" lon="3.19027">
        <ele>56.86</ele>
        <time>2014-02-10T09:15:44Z</time>
      </trkpt>
      <trkpt lat="48.9704" lon="3.19039">
        <ele>58.3</ele>
        <time>2014-02-10T09:15:53Z</time>
      </trkpt>
      <trkpt lat="48.97042" lon="3.1904">
        <ele>57.82</ele>
        <time>2014-02-10T09:15:55Z</time>
      </trkpt>
      <trkpt lat="48.97048" lon="3.19044">
        <ele>58.3</ele>
        <time>2014-02-10T09:15:59Z</time>
      </trkpt>
      <trkpt lat="48.97074" lon="3.1906">
        <ele>59.26</ele>
        <time>2014-02-10T09:16:20Z</time>
      </trkpt>
      <trkpt lat="48.97087" lon="3.19065">
        <ele>58.3</ele>
        <time>2014-02-10T09:16:30Z</time>
      </trkpt>
      <trkpt lat="48.97088" lon="3.19093">
        <ele>60.7</ele>
        <time>2014-02-10T09:16:47Z</time>
      </trkpt>
      <trkpt lat="48.9708" lon="3.19124">
        <ele>60.22</ele>
        <time>2014-02-10T09:17:05Z</time>
      </trkpt>
      <trkpt lat="48.97067" lon="3.1916">
        <ele>58.3</ele>
        <time>2014-02-10T09:17:24Z</time>
      </trkpt>
      <trkpt lat="48.97058" lon="3.19185">
        <ele>57.82</ele>
        <time>2014-02-10T09:17:38Z</time>
      </trkpt>
      <trkpt lat="48.97055" lon="3.192">
        <ele>58.3</ele>
        <time>2014-02-10T09:17:46Z</time>
      </trkpt>
      <trkpt lat="48.97054" lon="3.1921">
        <ele>58.3</ele>
        <time>2014-02-10T09:17:50Z</time>
      </trkpt>
      <trkpt lat="48.97056" lon="3.19221">
        <ele>57.82</ele>
        <time>2014-02-10T09:17:57Z</time>
      </trkpt>
      <trkpt lat="48.97053" lon="3.19243">
        <ele>58.3</ele>
        <time>2014-02-10T09:18:07Z</time>
      </trkpt>
      <trkpt lat="48.97044" lon="3.19264">
        <ele>58.3</ele>
        <time>2014-02-10T09:18:18Z</time>
      </trkpt>
      <trkpt lat="48.97039" lon="3.19279">
        <ele>58.78</ele>
        <time>2014-02-10T09:18:28Z</time>
      </trkpt>
      <trkpt lat="48.97033" lon="3.19293">
        <ele>57.34</ele>
        <time>2014-02-10T09:18:34Z</time>
      </trkpt>
      <trkpt lat="48.97031" lon="3.19297">
        <ele>57.34</ele>
        <time>2014-02-10T09:18:36Z</time>
      </trkpt>
      <trkpt lat="48.97026" lon="3.19308">
        <ele>56.86</ele>
        <time>2014-02-10T09:18:43Z</time>
      </trkpt>
      <trkpt lat="48.97028" lon="3.19319">
        <ele>55.41</ele>
        <time>2014-02-10T09:18:50Z</time>
      </trkpt>
      <trkpt lat="48.97027" lon="3.19332">
        <ele>55.89</ele>
        <time>2014-02-10T09:18:56Z</time>
      </trkpt>
      <trkpt lat="48.9702" lon="3.19363">
        <ele>56.86</ele>
        <time>2014-02-10T09:19:11Z</time>
      </trkpt>
      <trkpt lat="48.97014" lon="3.1939">
        <ele>58.3</ele>
        <time>2014-02-10T09:19:24Z</time>
      </trkpt>
      <trkpt lat="48.97007" lon="3.19419">
        <ele>61.66</ele>
        <time>2014-02-10T09:19:39Z</time>
      </trkpt>
      <trkpt lat="48.97007" lon="3.19422">
        <ele>61.66</ele>
        <time>2014-02-10T09:19:41Z</time>
      </trkpt>
      <trkpt lat="48.97002" lon="3.19439">
        <ele>62.62</ele>
        <time>2014-02-10T09:19:49Z</time>
      </trkpt>
      <trkpt lat="48.96995" lon="3.19471">
        <ele>66.47</ele>
        <time>2014-02-10T09:20:06Z</time>
      </trkpt>
      <trkpt lat="48.96992" lon="3.19497">
        <ele>65.99</ele>
        <time>2014-02-10T09:20:21Z</time>
      </trkpt>
      <trkpt lat="48.96995" lon="3.19528">
        <ele>67.43</ele>
        <time>2014-02-10T09:20:36Z</time>
      </trkpt>
      <trkpt lat="48.96996" lon="3.19536">
        <ele>67.91</ele>
        <time>2014-02-10T09:20:41Z</time>
      </trkpt>
      <trkpt lat="48.97" lon="3.19573">
        <ele>71.27</ele>
        <time>2014-02-10T09:20:58Z</time>
      </trkpt>
      <trkpt lat="48.97002" lon="3.196">
        <ele>73.68</ele>
        <time>2014-02-10T09:21:11Z</time>
      </trkpt>
      <trkpt lat="48.97004" lon="3.19618">
        <ele>75.6</ele>
        <time>2014-02-10T09:21:20Z</time>
      </trkpt>
      <trkpt lat="48.97006" lon="3.19652">
        <ele>79.45</ele>
        <time>2014-02-10T09:21:36Z</time>
      </trkpt>
      <trkpt lat="48.97008" lon="3.19677">
        <ele>81.85</ele>
        <time>2014-02-10T09:21:48Z</time>
      </trkpt>
      <trkpt lat="48.97009" lon="3.19687">
        <ele>82.33</ele>
        <time>2014-02-10T09:21:52Z</time>
      </trkpt>
      <trkpt lat="48.97011" lon="3.19714">
        <ele>83.29</ele>
        <time>2014-02-10T09:22:05Z</time>
      </trkpt>
      <trkpt lat="48.97012" lon="3.19726">
        <ele>83.29</ele>
        <time>2014-02-10T09:22:11Z</time>
      </trkpt>
      <trkpt lat="48.97012" lon="3.19756">
        <ele>82.33</ele>
        <time>2014-02-10T09:22:26Z</time>
      </trkpt>
      <trkpt lat="48.97012" lon="3.19763">
        <ele>81.85</ele>
        <time>2014-02-10T09:22:30Z</time>
      </trkpt>
      <trkpt lat="48.97011" lon="3.19793">
        <ele>82.33</ele>
        <time>2014-02-10T09:22:44Z</time>
      </trkpt>
      <trkpt lat="48.97012" lon="3.19796">
        <ele>82.33</ele>
        <time>2014-02-10T09:22:46Z</time>
      </trkpt>
      <trkpt lat="48.97008" lon="3.19821">
        <ele>82.81</ele>
        <time>2014-02-10T09:22:58Z</time>
      </trkpt>
      <trkpt lat="48.97004" lon="3.19844">
        <ele>83.29</ele>
        <time>2014-02-10T09:23:10Z</time>
      </trkpt>
      <trkpt lat="48.96998" lon="3.19871">
        <ele>85.21</ele>
        <time>2014-02-10T09:23:23Z</time>
      </trkpt>
      <trkpt lat="48.96991" lon="3.19899">
        <ele>85.69</ele>
        <time>2014-02-10T09:23:36Z</time>
      </trkpt>
      <trkpt lat="48.96983" lon="3.19935">
        <ele>85.21</ele>
        <time>2014-02-10T09:23:54Z</time>
      </trkpt>
      <trkpt lat="48.96978" lon="3.19961">
        <ele>87.14</ele>
        <time>2014-02-10T09:24:07Z</time>
      </trkpt>
      <trkpt lat="48.96974" lon="3.19979">
        <ele>87.14</ele>
        <time>2014-02-10T09:24:16Z</time>
      </trkpt>
      <trkpt lat="48.96971" lon="3.19988">
        <ele>87.14</ele>
        <time>2014-02-10T09:24:20Z</time>
      </trkpt>
      <trkpt lat="48.96965" lon="3.20016">
        <ele>86.66</ele>
        <time>2014-02-10T09:24:33Z</time>
      </trkpt>
      <trkpt lat="48.96961" lon="3.20044">
        <ele>88.1</ele>
        <time>2014-02-10T09:24:47Z</time>
      </trkpt>
      <trkpt lat="48.96955" lon="3.20072">
        <ele>87.62</ele>
        <time>2014-02-10T09:25:00Z</time>
      </trkpt>
      <trkpt lat="48.96948" lon="3.20102">
        <ele>87.62</ele>
        <time>2014-02-10T09:25:14Z</time>
      </trkpt>
      <trkpt lat="48.96943" lon="3.20128">
        <ele>87.14</ele>
        <time>2014-02-10T09:25:27Z</time>
      </trkpt>
      <trkpt lat="48.96938" lon="3.20148">
        <ele>87.62</ele>
        <time>2014-02-10T09:25:37Z</time>
      </trkpt>
      <trkpt lat="48.96934" lon="3.20172">
        <ele>88.58</ele>
        <time>2014-02-10T09:25:49Z</time>
      </trkpt>
      <trkpt lat="48.96927" lon="3.20198">
        <ele>90.5</ele>
        <time>2014-02-10T09:26:02Z</time>
      </trkpt>
      <trkpt lat="48.96917" lon="3.20221">
        <ele>91.94</ele>
        <time>2014-02-10T09:26:15Z</time>
      </trkpt>
      <trkpt lat="48.96907" lon="3.20246">
        <ele>91.46</ele>
        <time>2014-02-10T09:26:28Z</time>
      </trkpt>
      <trkpt lat="48.96901" lon="3.20264">
        <ele>92.9</ele>
        <time>2014-02-10T09:26:39Z</time>
      </trkpt>
      <trkpt lat="48.96893" lon="3.20284">
        <ele>93.87</ele>
        <time>2014-02-10T09:26:50Z</time>
      </trkpt>
      <trkpt lat="48.96892" lon="3.20294">
        <ele>93.87</ele>
        <time>2014-02-10T09:26:58Z</time>
      </trkpt>
      <trkpt lat="48.9692" lon="3.20312">
        <ele>91.46</ele>
        <time>2014-02-10T09:27:18Z</time>
      </trkpt>
      <trkpt lat="48.96938" lon="3.20324">
        <ele>92.42</ele>
        <time>2014-02-10T09:27:32Z</time>
      </trkpt>
      <trkpt lat="48.96946" lon="3.2033">
        <ele>92.42</ele>
        <time>2014-02-10T09:27:38Z</time>
      </trkpt>
      <trkpt lat="48.96964" lon="3.2034">
        <ele>91.46</ele>
        <time>2014-02-10T09:27:52Z</time>
      </trkpt>
      <trkpt lat="48.96981" lon="3.20352">
        <ele>92.9</ele>
        <time>2014-02-10T09:28:06Z</time>
      </trkpt>
      <trkpt lat="48.96998" lon="3.20363">
        <ele>95.79</ele>
        <time>2014-02-10T09:28:20Z</time>
      </trkpt>
      <trkpt lat="48.97015" lon="3.20371">
        <ele>97.71</ele>
        <time>2014-02-10T09:28:32Z</time>
      </trkpt>
      <trkpt lat="48.97032" lon="3.20377">
        <ele>97.71</ele>
        <time>2014-02-10T09:28:45Z</time>
      </trkpt>
      <trkpt lat="48.9705" lon="3.20381">
        <ele>100.6</ele>
        <time>2014-02-10T09:28:58Z</time>
      </trkpt>
      <trkpt lat="48.97068" lon="3.2038">
        <ele>103.48</ele>
        <time>2014-02-10T09:29:11Z</time>
      </trkpt>
      <trkpt lat="48.97086" lon="3.20376">
        <ele>105.4</ele>
        <time>2014-02-10T09:29:24Z</time>
      </trkpt>
      <trkpt lat="48.97101" lon="3.20375">
        <ele>104.92</ele>
        <time>2014-02-10T09:29:36Z</time>
      </trkpt>
      <trkpt lat="48.97113" lon="3.20376">
        <ele>105.88</ele>
        <time>2014-02-10T09:29:43Z</time>
      </trkpt>
      <trkpt lat="48.97115" lon="3.20387">
        <ele>107.32</ele>
        <time>2014-02-10T09:29:51Z</time>
      </trkpt>
      <trkpt lat="48.97105" lon="3.20411">
        <ele>107.81</ele>
        <time>2014-02-10T09:30:05Z</time>
      </trkpt>
      <trkpt lat="48.97105" lon="3.20412">
        <ele>107.81</ele>
        <time>2014-02-10T09:30:08Z</time>
      </trkpt>
      <trkpt lat="48.97108" lon="3.20421">
        <ele>106.84</ele>
        <time>2014-02-10T09:30:12Z</time>
      </trkpt>
      <trkpt lat="48.97119" lon="3.20433">
        <ele>104.92</ele>
        <time>2014-02-10T09:30:23Z</time>
      </trkpt>
      <trkpt lat="48.97127" lon="3.20441">
        <ele>104.92</ele>
        <time>2014-02-10T09:30:32Z</time>
      </trkpt>
      <trkpt lat="48.97137" lon="3.20452">
        <ele>102.04</ele>
        <time>2014-02-10T09:30:40Z</time>
      </trkpt>
      <trkpt lat="48.97151" lon="3.2046">
        <ele>101.08</ele>
        <time>2014-02-10T09:30:50Z</time>
      </trkpt>
      <trkpt lat="48.97168" lon="3.20471">
        <ele>105.88</ele>
        <time>2014-02-10T09:31:04Z</time>
      </trkpt>
      <trkpt lat="48.97189" lon="3.20485">
        <ele>108.77</ele>
        <time>2014-02-10T09:31:19Z</time>
      </trkpt>
      <trkpt lat="48.97207" lon="3.20503">
        <ele>109.73</ele>
        <time>2014-02-10T09:31:35Z</time>
      </trkpt>
      <trkpt lat="48.97214" lon="3.20509">
        <ele>111.17</ele>
        <time>2014-02-10T09:31:46Z</time>
      </trkpt>
      <trkpt lat="48.97217" lon="3.2051">
        <ele>111.17</ele>
        <time>2014-02-10T09:31:49Z</time>
      </trkpt>
      <trkpt lat="48.97236" lon="3.20521">
        <ele>117.42</ele>
        <time>2014-02-10T09:32:08Z</time>
      </trkpt>
      <trkpt lat="48.97258" lon="3.20532">
        <ele>121.74</ele>
        <time>2014-02-10T09:32:28Z</time>
      </trkpt>
      <trkpt lat="48.97277" lon="3.20541">
        <ele>124.15</ele>
        <time>2014-02-10T09:32:44Z</time>
      </trkpt>
      <trkpt lat="48.973" lon="3.20558">
        <ele>126.07</ele>
        <time>2014-02-10T09:33:04Z</time>
      </trkpt>
      <trkpt lat="48.97317" lon="3.2058">
        <ele>126.55</ele>
        <time>2014-02-10T09:33:21Z</time>
      </trkpt>
      <trkpt lat="48.97323" lon="3.20594">
        <ele>127.99</ele>
        <time>2014-02-10T09:33:30Z</time>
      </trkpt>
      <trkpt lat="48.97322" lon="3.20603">
        <ele>129.92</ele>
        <time>2014-02-10T09:33:35Z</time>
      </trkpt>
      <trkpt lat="48.97328" lon="3.20625">
        <ele>130.88</ele>
        <time>2014-02-10T09:33:49Z</time>
      </trkpt>
      <trkpt lat="48.97335" lon="3.20641">
        <ele>131.36</ele>
        <time>2014-02-10T09:33:59Z</time>
      </trkpt>
      <trkpt lat="48.97349" lon="3.2066">
        <ele>133.28</ele>
        <time>2014-02-10T09:34:16Z</time>
      </trkpt>
      <trkpt lat="48.97361" lon="3.20675">
        <ele>136.16</ele>
        <time>2014-02-10T09:34:30Z</time>
      </trkpt>
      <trkpt lat="48.97379" lon="3.20692">
        <ele>139.53</ele>
        <time>2014-02-10T09:34:47Z</time>
      </trkpt>
      <trkpt lat="48.97393" lon="3.20704">
        <ele>142.41</ele>
        <time>2014-02-10T09:35:01Z</time>
      </trkpt>
      <trkpt lat="48.97408" lon="3.20717">
        <ele>144.34</ele>
        <time>2014-02-10T09:35:15Z</time>
      </trkpt>
      <trkpt lat="48.97412" lon="3.20721">
        <ele>144.34</ele>
        <time>2014-02-10T09:35:19Z</time>
      </trkpt>
      <trkpt lat="48.9743" lon="3.20732">
        <ele>143.37</ele>
        <time>2014-02-10T09:35:34Z</time>
      </trkpt>
      <trkpt lat="48.97445" lon="3.20745">
        <ele>144.34</ele>
        <time>2014-02-10T09:35:49Z</time>
      </trkpt>
      <trkpt lat="48.97459" lon="3.20756">
        <ele>147.22</ele>
        <time>2014-02-10T09:36:02Z</time>
      </trkpt>
      <trkpt lat="48.97474" lon="3.20768">
        <ele>148.66</ele>
        <time>2014-02-10T09:36:14Z</time>
      </trkpt>
      <trkpt lat="48.9749" lon="3.20782">
        <ele>147.22</ele>
        <time>2014-02-10T09:36:28Z</time>
      </trkpt>
      <trkpt lat="48.97509" lon="3.20801">
        <ele>146.74</ele>
        <time>2014-02-10T09:36:46Z</time>
      </trkpt>
      <trkpt lat="48.9753" lon="3.20826">
        <ele>143.85</ele>
        <time>2014-02-10T09:37:03Z</time>
      </trkpt>
      <trkpt lat="48.97549" lon="3.20843">
        <ele>143.85</ele>
        <time>2014-02-10T09:37:20Z</time>
      </trkpt>
      <trkpt lat="48.97563" lon="3.20852">
        <ele>145.78</ele>
        <time>2014-02-10T09:37:37Z</time>
      </trkpt>
      <trkpt lat="48.97576" lon="3.20866">
        <ele>142.89</ele>
        <time>2014-02-10T09:37:53Z</time>
      </trkpt>
      <trkpt lat="48.97586" lon="3.2088">
        <ele>141.93</ele>
        <time>2014-02-10T09:38:05Z</time>
      </trkpt>
      <trkpt lat="48.97601" lon="3.20896">
        <ele>140.97</ele>
        <time>2014-02-10T09:38:21Z</time>
      </trkpt>
      <trkpt lat="48.97613" lon="3.20906">
        <ele>141.93</ele>
        <time>2014-02-10T09:38:35Z</time>
      </trkpt>
      <trkpt lat="48.97629" lon="3.20922">
        <ele>142.41</ele>
        <time>2014-02-10T09:38:49Z</time>
      </trkpt>
      <trkpt lat="48.97639" lon="3.20945">
        <ele>143.85</ele>
        <time>2014-02-10T09:39:06Z</time>
      </trkpt>
      <trkpt lat="48.97649" lon="3.20964">
        <ele>145.78</ele>
        <time>2014-02-10T09:39:22Z</time>
      </trkpt>
      <trkpt lat="48.9766" lon="3.20977">
        <ele>147.22</ele>
        <time>2014-02-10T09:39:37Z</time>
      </trkpt>
      <trkpt lat="48.97675" lon="3.20999">
        <ele>146.74</ele>
        <time>2014-02-10T09:39:54Z</time>
      </trkpt>
      <trkpt lat="48.97687" lon="3.21017">
        <ele>145.78</ele>
        <time>2014-02-10T09:40:09Z</time>
      </trkpt>
      <trkpt lat="48.97694" lon="3.21032">
        <ele>145.78</ele>
        <time>2014-02-10T09:40:24Z</time>
      </trkpt>
      <trkpt lat="48.97712" lon="3.21054">
        <ele>144.82</ele>
        <time>2014-02-10T09:40:40Z</time>
      </trkpt>
      <trkpt lat="48.97725" lon="3.2107">
        <ele>143.85</ele>
        <time>2014-02-10T09:40:55Z</time>
      </trkpt>
      <trkpt lat="48.97733" lon="3.21082">
        <ele>139.05</ele>
        <time>2014-02-10T09:41:07Z</time>
      </trkpt>
      <trkpt lat="48.97734" lon="3.21083">
        <ele>138.57</ele>
        <time>2014-02-10T09:41:08Z</time>
      </trkpt>
      <trkpt lat="48.97739" lon="3.21094">
        <ele>136.16</ele>
        <time>2014-02-10T09:41:20Z</time>
      </trkpt>
      <trkpt lat="48.97744" lon="3.21097">
        <ele>138.09</ele>
        <time>2014-02-10T09:41:48Z</time>
      </trkpt>
      <trkpt lat="48.97749" lon="3.21106">
        <ele>138.57</ele>
        <time>2014-02-10T09:42:00Z</time>
      </trkpt>
      <trkpt lat="48.97755" lon="3.21115">
        <ele>139.05</ele>
        <time>2014-02-10T09:42:08Z</time>
      </trkpt>
      <trkpt lat="48.97766" lon="3.21132">
        <ele>140.49</ele>
        <time>2014-02-10T09:42:22Z</time>
      </trkpt>
      <trkpt lat="48.97776" lon="3.21154">
        <ele>140.49</ele>
        <time>2014-02-10T09:42:39Z</time>
      </trkpt>
      <trkpt lat="48.97789" lon="3.21178">
        <ele>142.89</ele>
        <time>2014-02-10T09:42:55Z</time>
      </trkpt>
      <trkpt lat="48.97799" lon="3.21195">
        <ele>143.37</ele>
        <time>2014-02-10T09:43:07Z</time>
      </trkpt>
      <trkpt lat="48.97806" lon="3.21213">
        <ele>144.34</ele>
        <time>2014-02-10T09:43:20Z</time>
      </trkpt>
      <trkpt lat="48.97808" lon="3.21216">
        <ele>145.78</ele>
        <time>2014-02-10T09:43:35Z</time>
      </trkpt>
      <trkpt lat="48.97808" lon="3.21216">
        <ele>146.26</ele>
        <time>2014-02-10T09:43:40Z</time>
      </trkpt>
      <trkpt lat="48.97822" lon="3.21236">
        <ele>149.14</ele>
        <time>2014-02-10T09:43:57Z</time>
      </trkpt>
      <trkpt lat="48.97836" lon="3.21253">
        <ele>150.1</ele>
        <time>2014-02-10T09:44:13Z</time>
      </trkpt>
      <trkpt lat="48.97839" lon="3.21257">
        <ele>149.62</ele>
        <time>2014-02-10T09:44:17Z</time>
      </trkpt>
      <trkpt lat="48.97842" lon="3.21263">
        <ele>148.18</ele>
        <time>2014-02-10T09:44:31Z</time>
      </trkpt>
      <trkpt lat="48.97842" lon="3.21264">
        <ele>149.62</ele>
        <time>2014-02-10T09:44:43Z</time>
      </trkpt>
      <trkpt lat="48.97849" lon="3.21268">
        <ele>149.14</ele>
        <time>2014-02-10T09:44:49Z</time>
      </trkpt>
      <trkpt lat="48.97852" lon="3.21273">
        <ele>149.62</ele>
        <time>2014-02-10T09:44:53Z</time>
      </trkpt>
      <trkpt lat="48.97869" lon="3.21293">
        <ele>148.66</ele>
        <time>2014-02-10T09:45:10Z</time>
      </trkpt>
      <trkpt lat="48.97881" lon="3.2131">
        <ele>147.22</ele>
        <time>2014-02-10T09:45:23Z</time>
      </trkpt>
      <trkpt lat="48.97899" lon="3.2133">
        <ele>145.78</ele>
        <time>2014-02-10T09:45:38Z</time>
      </trkpt>
      <trkpt lat="48.97916" lon="3.21356">
        <ele>144.82</ele>
        <time>2014-02-10T09:45:56Z</time>
      </trkpt>
      <trkpt lat="48.9793" lon="3.21378">
        <ele>144.82</ele>
        <time>2014-02-10T09:46:12Z</time>
      </trkpt>
      <trkpt lat="48.97943" lon="3.21398">
        <ele>146.26</ele>
        <time>2014-02-10T09:46:27Z</time>
      </trkpt>
      <trkpt lat="48.97957" lon="3.21428">
        <ele>146.26</ele>
        <time>2014-02-10T09:46:46Z</time>
      </trkpt>
      <trkpt lat="48.97964" lon="3.21453">
        <ele>148.66</ele>
        <time>2014-02-10T09:47:03Z</time>
      </trkpt>
      <trkpt lat="48.97974" lon="3.21473">
        <ele>147.22</ele>
        <time>2014-02-10T09:47:17Z</time>
      </trkpt>
      <trkpt lat="48.97982" lon="3.21491">
        <ele>142.89</ele>
        <time>2014-02-10T09:47:33Z</time>
      </trkpt>
      <trkpt lat="48.97993" lon="3.21518">
        <ele>140.97</ele>
        <time>2014-02-10T09:47:50Z</time>
      </trkpt>
      <trkpt lat="48.98002" lon="3.21538">
        <ele>142.89</ele>
        <time>2014-02-10T09:48:06Z</time>
      </trkpt>
      <trkpt lat="48.98012" lon="3.21562">
        <ele>146.26</ele>
        <time>2014-02-10T09:48:23Z</time>
      </trkpt>
      <trkpt lat="48.98012" lon="3.21566">
        <ele>148.18</ele>
        <time>2014-02-10T09:48:26Z</time>
      </trkpt>
      <trkpt lat="48.98019" lon="3.2159">
        <ele>152.51</ele>
        <time>2014-02-10T09:48:37Z</time>
      </trkpt>
      <trkpt lat="48.98019" lon="3.21601">
        <ele>153.95</ele>
        <time>2014-02-10T09:48:45Z</time>
      </trkpt>
      <trkpt lat="48.98009" lon="3.21608">
        <ele>152.99</ele>
        <time>2014-02-10T09:48:55Z</time>
      </trkpt>
      <trkpt lat="48.98005" lon="3.21612">
        <ele>152.99</ele>
        <time>2014-02-10T09:49:01Z</time>
      </trkpt>
      <trkpt lat="48.97999" lon="3.21617">
        <ele>151.06</ele>
        <time>2014-02-10T09:49:07Z</time>
      </trkpt>
      <trkpt lat="48.98" lon="3.21633">
        <ele>148.66</ele>
        <time>2014-02-10T09:49:16Z</time>
      </trkpt>
      <trkpt lat="48.98009" lon="3.21651">
        <ele>145.78</ele>
        <time>2014-02-10T09:49:28Z</time>
      </trkpt>
      <trkpt lat="48.97993" lon="3.21669">
        <ele>138.57</ele>
        <time>2014-02-10T09:49:46Z</time>
      </trkpt>
      <trkpt lat="48.9798" lon="3.21685">
        <ele>132.8</ele>
        <time>2014-02-10T09:50:03Z</time>
      </trkpt>
      <trkpt lat="48.97969" lon="3.21701">
        <ele>126.55</ele>
        <time>2014-02-10T09:50:19Z</time>
      </trkpt>
      <trkpt lat="48.97967" lon="3.21704">
        <ele>126.07</ele>
        <time>2014-02-10T09:50:22Z</time>
      </trkpt>
      <trkpt lat="48.97953" lon="3.21724">
        <ele>120.3</ele>
        <time>2014-02-10T09:50:38Z</time>
      </trkpt>
      <trkpt lat="48.97949" lon="3.21723">
        <ele>118.38</ele>
        <time>2014-02-10T09:50:44Z</time>
      </trkpt>
      <trkpt lat="48.97938" lon="3.21707">
        <ele>116.46</ele>
        <time>2014-02-10T09:50:58Z</time>
      </trkpt>
      <trkpt lat="48.97935" lon="3.2171">
        <ele>115.98</ele>
        <time>2014-02-10T09:51:09Z</time>
      </trkpt>
      <trkpt lat="48.97936" lon="3.21712">
        <ele>118.38</ele>
        <time>2014-02-10T09:51:19Z</time>
      </trkpt>
      <trkpt lat="48.97937" lon="3.21714">
        <ele>118.86</ele>
        <time>2014-02-10T09:51:22Z</time>
      </trkpt>
      <trkpt lat="48.97931" lon="3.21715">
        <ele>118.38</ele>
        <time>2014-02-10T09:51:37Z</time>
      </trkpt>
      <trkpt lat="48.97921" lon="3.21729">
        <ele>115.01</ele>
        <time>2014-02-10T09:51:57Z</time>
      </trkpt>
      <trkpt lat="48.97913" lon="3.21751">
        <ele>107.81</ele>
        <time>2014-02-10T09:52:15Z</time>
      </trkpt>
      <trkpt lat="48.97914" lon="3.21778">
        <ele>103</ele>
        <time>2014-02-10T09:52:30Z</time>
      </trkpt>
      <trkpt lat="48.97914" lon="3.21809">
        <ele>95.31</ele>
        <time>2014-02-10T09:52:48Z</time>
      </trkpt>
      <trkpt lat="48.97912" lon="3.21822">
        <ele>93.39</ele>
        <time>2014-02-10T09:53:04Z</time>
      </trkpt>
      <trkpt lat="48.97912" lon="3.21838">
        <ele>90.02</ele>
        <time>2014-02-10T09:53:30Z</time>
      </trkpt>
      <trkpt lat="48.97914" lon="3.21858">
        <ele>86.66</ele>
        <time>2014-02-10T09:53:47Z</time>
      </trkpt>
      <trkpt lat="48.97913" lon="3.21869">
        <ele>84.73</ele>
        <time>2014-02-10T09:54:11Z</time>
      </trkpt>
      <trkpt lat="48.97905" lon="3.21885">
        <ele>81.37</ele>
        <time>2014-02-10T09:54:27Z</time>
      </trkpt>
      <trkpt lat="48.97896" lon="3.21906">
        <ele>77.52</ele>
        <time>2014-02-10T09:54:47Z</time>
      </trkpt>
      <trkpt lat="48.97891" lon="3.21925">
        <ele>73.68</ele>
        <time>2014-02-10T09:55:01Z</time>
      </trkpt>
      <trkpt lat="48.97889" lon="3.21928">
        <ele>73.2</ele>
        <time>2014-02-10T09:55:03Z</time>
      </trkpt>
      <trkpt lat="48.97873" lon="3.21946">
        <ele>69.83</ele>
        <time>2014-02-10T09:55:17Z</time>
      </trkpt>
      <trkpt lat="48.97857" lon="3.21979">
        <ele>68.39</ele>
        <time>2014-02-10T09:55:31Z</time>
      </trkpt>
      <trkpt lat="48.97846" lon="3.22004">
        <ele>65.03</ele>
        <time>2014-02-10T09:55:45Z</time>
      </trkpt>
      <trkpt lat="48.97843" lon="3.22011">
        <ele>64.07</ele>
        <time>2014-02-10T09:55:51Z</time>
      </trkpt>
      <trkpt lat="48.97843" lon="3.22036">
        <ele>62.62</ele>
        <time>2014-02-10T09:56:01Z</time>
      </trkpt>
      <trkpt lat="48.97843" lon="3.22079">
        <ele>57.82</ele>
        <time>2014-02-10T09:56:21Z</time>
      </trkpt>
      <trkpt lat="48.97841" lon="3.22083">
        <ele>60.7</ele>
        <time>2014-02-10T09:56:24Z</time>
      </trkpt>
      <trkpt lat="48.97814" lon="3.22106">
        <ele>64.55</ele>
        <time>2014-02-10T09:56:40Z</time>
      </trkpt>
      <trkpt lat="48.97792" lon="3.22099">
        <ele>65.03</ele>
        <time>2014-02-10T09:56:54Z</time>
      </trkpt>
      <trkpt lat="48.97779" lon="3.22088">
        <ele>65.03</ele>
        <time>2014-02-10T09:57:08Z</time>
      </trkpt>
      <trkpt lat="48.97778" lon="3.22087">
        <ele>65.03</ele>
        <time>2014-02-10T09:57:17Z</time>
      </trkpt>
      <trkpt lat="48.97773" lon="3.22084">
        <ele>64.07</ele>
        <time>2014-02-10T09:57:27Z</time>
      </trkpt>
      <trkpt lat="48.97751" lon="3.22081">
        <ele>58.3</ele>
        <time>2014-02-10T09:57:43Z</time>
      </trkpt>
      <trkpt lat="48.97748" lon="3.22081">
        <ele>57.82</ele>
        <time>2014-02-10T09:57:45Z</time>
      </trkpt>
      <trkpt lat="48.9773" lon="3.22079">
        <ele>56.37</ele>
        <time>2014-02-10T09:57:59Z</time>
      </trkpt>
      <trkpt lat="48.97717" lon="3.22089">
        <ele>52.53</ele>
        <time>2014-02-10T09:58:15Z</time>
      </trkpt>
      <trkpt lat="48.97717" lon="3.22089">
        <ele>53.01</ele>
        <time>2014-02-10T09:58:17Z</time>
      </trkpt>
      <trkpt lat="48.9771" lon="3.22093">
        <ele>54.45</ele>
        <time>2014-02-10T09:58:23Z</time>
      </trkpt>
      <trkpt lat="48.97703" lon="3.22092">
        <ele>56.37</ele>
        <time>2014-02-10T09:58:30Z</time>
      </trkpt>
      <trkpt lat="48.97699" lon="3.22095">
        <ele>55.89</ele>
        <time>2014-02-10T09:58:45Z</time>
      </trkpt>
      <trkpt lat="48.97695" lon="3.22089">
        <ele>55.89</ele>
        <time>2014-02-10T09:58:49Z</time>
      </trkpt>
      <trkpt lat="48.9769" lon="3.22088">
        <ele>54.93</ele>
        <time>2014-02-10T09:59:03Z</time>
      </trkpt>
      <trkpt lat="48.9769" lon="3.22088">
        <ele>54.93</ele>
        <time>2014-02-10T09:59:04Z</time>
      </trkpt>
      <trkpt lat="48.9767" lon="3.22095">
        <ele>51.09</ele>
        <time>2014-02-10T09:59:21Z</time>
      </trkpt>
      <trkpt lat="48.97659" lon="3.22101">
        <ele>50.13</ele>
        <time>2014-02-10T09:59:28Z</time>
      </trkpt>
      <trkpt lat="48.97655" lon="3.22112">
        <ele>50.13</ele>
        <time>2014-02-10T09:59:41Z</time>
      </trkpt>
      <trkpt lat="48.97654" lon="3.22109">
        <ele>50.61</ele>
        <time>2014-02-10T09:59:55Z</time>
      </trkpt>
      <trkpt lat="48.97637" lon="3.22118">
        <ele>49.16</ele>
        <time>2014-02-10T10:00:11Z</time>
      </trkpt>
      <trkpt lat="48.97614" lon="3.22126">
        <ele>46.76</ele>
        <time>2014-02-10T10:00:28Z</time>
      </trkpt>
      <trkpt lat="48.97591" lon="3.22139">
        <ele>49.65</ele>
        <time>2014-02-10T10:00:45Z</time>
      </trkpt>
      <trkpt lat="48.97585" lon="3.22141">
        <ele>50.13</ele>
        <time>2014-02-10T10:00:50Z</time>
      </trkpt>
      <trkpt lat="48.9757" lon="3.22145">
        <ele>51.57</ele>
        <time>2014-02-10T10:01:01Z</time>
      </trkpt>
      <trkpt lat="48.9755" lon="3.22152">
        <ele>52.53</ele>
        <time>2014-02-10T10:01:18Z</time>
      </trkpt>
      <trkpt lat="48.97545" lon="3.22154">
        <ele>53.01</ele>
        <time>2014-02-10T10:01:30Z</time>
      </trkpt>
      <trkpt lat="48.97542" lon="3.22155">
        <ele>52.53</ele>
        <time>2014-02-10T10:01:40Z</time>
      </trkpt>
      <trkpt lat="48.97537" lon="3.22157">
        <ele>51.57</ele>
        <time>2014-02-10T10:01:44Z</time>
      </trkpt>
      <trkpt lat="48.97514" lon="3.22157">
        <ele>49.65</ele>
        <time>2014-02-10T10:02:02Z</time>
      </trkpt>
      <trkpt lat="48.97498" lon="3.22151">
        <ele>52.53</ele>
        <time>2014-02-10T10:02:15Z</time>
      </trkpt>
      <trkpt lat="48.97483" lon="3.22143">
        <ele>52.53</ele>
        <time>2014-02-10T10:02:29Z</time>
      </trkpt>
      <trkpt lat="48.97477" lon="3.2214">
        <ele>52.53</ele>
        <time>2014-02-10T10:02:35Z</time>
      </trkpt>
      <trkpt lat="48.97467" lon="3.22134">
        <ele>53.49</ele>
        <time>2014-02-10T10:02:43Z</time>
      </trkpt>
      <trkpt lat="48.97457" lon="3.22129">
        <ele>54.93</ele>
        <time>2014-02-10T10:02:52Z</time>
      </trkpt>
      <trkpt lat="48.97455" lon="3.22128">
        <ele>55.41</ele>
        <time>2014-02-10T10:02:54Z</time>
      </trkpt>
      <trkpt lat="48.97437" lon="3.22122">
        <ele>54.93</ele>
        <time>2014-02-10T10:03:08Z</time>
      </trkpt>
      <trkpt lat="48.97411" lon="3.22123">
        <ele>51.57</ele>
        <time>2014-02-10T10:03:27Z</time>
      </trkpt>
      <trkpt lat="48.97389" lon="3.22118">
        <ele>49.16</ele>
        <time>2014-02-10T10:03:45Z</time>
      </trkpt>
      <trkpt lat="48.97385" lon="3.2211">
        <ele>49.16</ele>
        <time>2014-02-10T10:03:51Z</time>
      </trkpt>
      <trkpt lat="48.97384" lon="3.22092">
        <ele>49.65</ele>
        <time>2014-02-10T10:04:02Z</time>
      </trkpt>
      <trkpt lat="48.97386" lon="3.22063">
        <ele>51.09</ele>
        <time>2014-02-10T10:04:19Z</time>
      </trkpt>
      <trkpt lat="48.97389" lon="3.22037">
        <ele>49.65</ele>
        <time>2014-02-10T10:04:33Z</time>
      </trkpt>
      <trkpt lat="48.97389" lon="3.22029">
        <ele>49.65</ele>
        <time>2014-02-10T10:04:38Z</time>
      </trkpt>
      <trkpt lat="48.97387" lon="3.2202">
        <ele>54.93</ele>
        <time>2014-02-10T10:04:53Z</time>
      </trkpt>
      <trkpt lat="48.97388" lon="3.2202">
        <ele>58.78</ele>
        <time>2014-02-10T10:05:11Z</time>
      </trkpt>
      <trkpt lat="48.97387" lon="3.22019">
        <ele>59.26</ele>
        <time>2014-02-10T10:05:35Z</time>
      </trkpt>
      <trkpt lat="48.97388" lon="3.22015">
        <ele>57.82</ele>
        <time>2014-02-10T10:05:51Z</time>
      </trkpt>
      <trkpt lat="48.97386" lon="3.22012">
        <ele>57.34</ele>
        <time>2014-02-10T10:05:54Z</time>
      </trkpt>
      <trkpt lat="48.97385" lon="3.22009">
        <ele>57.34</ele>
        <time>2014-02-10T10:05:56Z</time>
      </trkpt>
    </trkseg>
  </trk>
</gpx>